<?xml version="1.0" encoding="UTF-8" standalone="no" ?>
<gpx xmlns="http://www.topografix.com/GPX/1/1" xmlns:xsi="http://www.w3.org/2001/XMLSchema-instance" xsi:schemaLocation="http://www.topografix.com/GPX/1/1 http://www.topografix.com/GPX/1/1/gpx.xsd" version="1.1" creator="VisuGPX - https://www.visugpx.com">
  <metadata>
    <name>La Gratte (73 Bellevilles)</name>
    <desc><![CDATA[Départ du Bettaix
Photos et commentaires sur : [url]http://www.photosrandos.fr[/url]]]></desc>
  </metadata>
  <trk>
    <name><![CDATA[La Gratte (73 Bellevilles)_1]]></name>
    <trkseg>
      <trkpt lat="45.33971" lon="6.52602">
        <ele>1620.018</ele>
        <time>2009-12-14T08:23:51Z</time>
      </trkpt>
      <trkpt lat="45.33962" lon="6.52604">
        <ele>1615.306</ele>
        <time>2009-12-14T08:24:11Z</time>
      </trkpt>
      <trkpt lat="45.33952" lon="6.52609">
        <ele>1613.559</ele>
        <time>2009-12-14T08:24:19Z</time>
      </trkpt>
      <trkpt lat="45.33944" lon="6.52613">
        <ele>1612.976</ele>
        <time>2009-12-14T08:24:26Z</time>
      </trkpt>
      <trkpt lat="45.33935" lon="6.52618">
        <ele>1613.426</ele>
        <time>2009-12-14T08:24:34Z</time>
      </trkpt>
      <trkpt lat="45.33926" lon="6.52612">
        <ele>1612.084</ele>
        <time>2009-12-14T08:25:23Z</time>
      </trkpt>
      <trkpt lat="45.33921" lon="6.52601">
        <ele>1614.05</ele>
        <time>2009-12-14T08:25:36Z</time>
      </trkpt>
      <trkpt lat="45.33914" lon="6.52599">
        <ele>1621.514</ele>
        <time>2009-12-14T08:26:40Z</time>
      </trkpt>
      <trkpt lat="45.33906" lon="6.52596">
        <ele>1623.69</ele>
        <time>2009-12-14T08:26:49Z</time>
      </trkpt>
      <trkpt lat="45.33899" lon="6.52592">
        <ele>1628.634</ele>
        <time>2009-12-14T08:26:58Z</time>
      </trkpt>
      <trkpt lat="45.33891" lon="6.52589">
        <ele>1634.625</ele>
        <time>2009-12-14T08:27:08Z</time>
      </trkpt>
      <trkpt lat="45.33882" lon="6.52589">
        <ele>1637.079</ele>
        <time>2009-12-14T08:27:23Z</time>
      </trkpt>
      <trkpt lat="45.33872" lon="6.52589">
        <ele>1637.829</ele>
        <time>2009-12-14T08:27:35Z</time>
      </trkpt>
      <trkpt lat="45.33863" lon="6.52588">
        <ele>1638.817</ele>
        <time>2009-12-14T08:27:44Z</time>
      </trkpt>
      <trkpt lat="45.33856" lon="6.52585">
        <ele>1645</ele>
        <time>2009-12-14T08:28:00Z</time>
      </trkpt>
      <trkpt lat="45.33846" lon="6.52583">
        <ele>1646.923</ele>
        <time>2009-12-14T08:28:19Z</time>
      </trkpt>
      <trkpt lat="45.33839" lon="6.52589">
        <ele>1645.315</ele>
        <time>2009-12-14T08:28:47Z</time>
      </trkpt>
      <trkpt lat="45.3383" lon="6.52593">
        <ele>1646.897</ele>
        <time>2009-12-14T08:29:02Z</time>
      </trkpt>
      <trkpt lat="45.33822" lon="6.52598">
        <ele>1644.778</ele>
        <time>2009-12-14T08:29:20Z</time>
      </trkpt>
      <trkpt lat="45.33815" lon="6.52606">
        <ele>1646.532</ele>
        <time>2009-12-14T08:29:41Z</time>
      </trkpt>
      <trkpt lat="45.33809" lon="6.52615">
        <ele>1650.39</ele>
        <time>2009-12-14T08:29:58Z</time>
      </trkpt>
      <trkpt lat="45.338" lon="6.52616">
        <ele>1647.353</ele>
        <time>2009-12-14T08:30:13Z</time>
      </trkpt>
      <trkpt lat="45.33791" lon="6.52611">
        <ele>1648.675</ele>
        <time>2009-12-14T08:30:27Z</time>
      </trkpt>
      <trkpt lat="45.33785" lon="6.52604">
        <ele>1654.949</ele>
        <time>2009-12-14T08:30:43Z</time>
      </trkpt>
      <trkpt lat="45.3378" lon="6.52596">
        <ele>1659.707</ele>
        <time>2009-12-14T08:31:03Z</time>
      </trkpt>
      <trkpt lat="45.3377" lon="6.52593">
        <ele>1662.35</ele>
        <time>2009-12-14T08:31:20Z</time>
      </trkpt>
      <trkpt lat="45.33762" lon="6.52592">
        <ele>1665.498</ele>
        <time>2009-12-14T08:31:35Z</time>
      </trkpt>
      <trkpt lat="45.33754" lon="6.52585">
        <ele>1668.409</ele>
        <time>2009-12-14T08:31:53Z</time>
      </trkpt>
      <trkpt lat="45.33747" lon="6.52578">
        <ele>1671.578</ele>
        <time>2009-12-14T08:32:11Z</time>
      </trkpt>
      <trkpt lat="45.33739" lon="6.52571">
        <ele>1673.311</ele>
        <time>2009-12-14T08:32:31Z</time>
      </trkpt>
      <trkpt lat="45.3373" lon="6.52568">
        <ele>1675.612</ele>
        <time>2009-12-14T08:32:50Z</time>
      </trkpt>
      <trkpt lat="45.33723" lon="6.52559">
        <ele>1677.044</ele>
        <time>2009-12-14T08:33:16Z</time>
      </trkpt>
      <trkpt lat="45.33721" lon="6.52545">
        <ele>1678.737</ele>
        <time>2009-12-14T08:33:47Z</time>
      </trkpt>
      <trkpt lat="45.33712" lon="6.52542">
        <ele>1680.621</ele>
        <time>2009-12-14T08:34:02Z</time>
      </trkpt>
      <trkpt lat="45.33705" lon="6.52538">
        <ele>1685.826</ele>
        <time>2009-12-14T08:34:27Z</time>
      </trkpt>
      <trkpt lat="45.33696" lon="6.52535">
        <ele>1690.64</ele>
        <time>2009-12-14T08:34:43Z</time>
      </trkpt>
      <trkpt lat="45.33689" lon="6.52528">
        <ele>1694.781</ele>
        <time>2009-12-14T08:35:01Z</time>
      </trkpt>
      <trkpt lat="45.33687" lon="6.52515">
        <ele>1697.031</ele>
        <time>2009-12-14T08:35:27Z</time>
      </trkpt>
      <trkpt lat="45.33681" lon="6.52504">
        <ele>1697.724</ele>
        <time>2009-12-14T08:35:49Z</time>
      </trkpt>
      <trkpt lat="45.33677" lon="6.52492">
        <ele>1700.2</ele>
        <time>2009-12-14T08:36:05Z</time>
      </trkpt>
      <trkpt lat="45.33668" lon="6.52489">
        <ele>1703.192</ele>
        <time>2009-12-14T08:36:25Z</time>
      </trkpt>
      <trkpt lat="45.3366" lon="6.52485">
        <ele>1702.335</ele>
        <time>2009-12-14T08:36:35Z</time>
      </trkpt>
      <trkpt lat="45.33652" lon="6.52481">
        <ele>1707.807</ele>
        <time>2009-12-14T08:36:49Z</time>
      </trkpt>
      <trkpt lat="45.33646" lon="6.52472">
        <ele>1711.486</ele>
        <time>2009-12-14T08:37:10Z</time>
      </trkpt>
      <trkpt lat="45.33643" lon="6.52459">
        <ele>1712.846</ele>
        <time>2009-12-14T08:37:32Z</time>
      </trkpt>
      <trkpt lat="45.33648" lon="6.52447">
        <ele>1713.592</ele>
        <time>2009-12-14T08:37:50Z</time>
      </trkpt>
      <trkpt lat="45.33644" lon="6.52435">
        <ele>1716.077</ele>
        <time>2009-12-14T08:38:12Z</time>
      </trkpt>
      <trkpt lat="45.33639" lon="6.52425">
        <ele>1718.013</ele>
        <time>2009-12-14T08:38:36Z</time>
      </trkpt>
      <trkpt lat="45.33632" lon="6.52416">
        <ele>1720.98</ele>
        <time>2009-12-14T08:38:57Z</time>
      </trkpt>
      <trkpt lat="45.33624" lon="6.52409">
        <ele>1722.58</ele>
        <time>2009-12-14T08:39:13Z</time>
      </trkpt>
      <trkpt lat="45.3362" lon="6.52398">
        <ele>1723.64</ele>
        <time>2009-12-14T08:39:30Z</time>
      </trkpt>
      <trkpt lat="45.33613" lon="6.52393">
        <ele>1729.202</ele>
        <time>2009-12-14T08:39:57Z</time>
      </trkpt>
      <trkpt lat="45.33604" lon="6.52391">
        <ele>1730.796</ele>
        <time>2009-12-14T08:43:05Z</time>
      </trkpt>
      <trkpt lat="45.33597" lon="6.52382">
        <ele>1733.471</ele>
        <time>2009-12-14T08:43:15Z</time>
      </trkpt>
      <trkpt lat="45.33589" lon="6.52375">
        <ele>1732.033</ele>
        <time>2009-12-14T08:43:24Z</time>
      </trkpt>
      <trkpt lat="45.33584" lon="6.52364">
        <ele>1735.38</ele>
        <time>2009-12-14T08:43:37Z</time>
      </trkpt>
      <trkpt lat="45.33588" lon="6.52354">
        <ele>1740.65</ele>
        <time>2009-12-14T08:44:04Z</time>
      </trkpt>
      <trkpt lat="45.33579" lon="6.52351">
        <ele>1745.091</ele>
        <time>2009-12-14T08:44:17Z</time>
      </trkpt>
      <trkpt lat="45.3357" lon="6.52349">
        <ele>1744.931</ele>
        <time>2009-12-14T08:44:34Z</time>
      </trkpt>
      <trkpt lat="45.33568" lon="6.52336">
        <ele>1747.05</ele>
        <time>2009-12-14T08:45:00Z</time>
      </trkpt>
      <trkpt lat="45.33573" lon="6.52325">
        <ele>1747.884</ele>
        <time>2009-12-14T08:45:21Z</time>
      </trkpt>
      <trkpt lat="45.33571" lon="6.52312">
        <ele>1750.285</ele>
        <time>2009-12-14T08:45:45Z</time>
      </trkpt>
      <trkpt lat="45.33563" lon="6.52306">
        <ele>1752.721</ele>
        <time>2009-12-14T08:46:04Z</time>
      </trkpt>
      <trkpt lat="45.33557" lon="6.52296">
        <ele>1753.838</ele>
        <time>2009-12-14T08:46:25Z</time>
      </trkpt>
      <trkpt lat="45.33554" lon="6.52285">
        <ele>1758.135</ele>
        <time>2009-12-14T08:46:44Z</time>
      </trkpt>
      <trkpt lat="45.33549" lon="6.52274">
        <ele>1761.598</ele>
        <time>2009-12-14T08:47:09Z</time>
      </trkpt>
      <trkpt lat="45.33552" lon="6.52263">
        <ele>1764.873</ele>
        <time>2009-12-14T08:47:25Z</time>
      </trkpt>
      <trkpt lat="45.33557" lon="6.52253">
        <ele>1769.33</ele>
        <time>2009-12-14T08:47:41Z</time>
      </trkpt>
      <trkpt lat="45.33558" lon="6.5224">
        <ele>1772.105</ele>
        <time>2009-12-14T08:48:03Z</time>
      </trkpt>
      <trkpt lat="45.33563" lon="6.5223">
        <ele>1775.561</ele>
        <time>2009-12-14T08:48:29Z</time>
      </trkpt>
      <trkpt lat="45.33558" lon="6.52219">
        <ele>1776.379</ele>
        <time>2009-12-14T08:48:47Z</time>
      </trkpt>
      <trkpt lat="45.3355" lon="6.52212">
        <ele>1779.014</ele>
        <time>2009-12-14T08:49:10Z</time>
      </trkpt>
      <trkpt lat="45.3355" lon="6.522">
        <ele>1783.961</ele>
        <time>2009-12-14T08:49:45Z</time>
      </trkpt>
      <trkpt lat="45.33557" lon="6.52194">
        <ele>1787.953</ele>
        <time>2009-12-14T08:50:06Z</time>
      </trkpt>
      <trkpt lat="45.33564" lon="6.52188">
        <ele>1792.613</ele>
        <time>2009-12-14T08:50:25Z</time>
      </trkpt>
      <trkpt lat="45.33568" lon="6.52175">
        <ele>1794.703</ele>
        <time>2009-12-14T08:50:48Z</time>
      </trkpt>
      <trkpt lat="45.33558" lon="6.52172">
        <ele>1795.565</ele>
        <time>2009-12-14T08:51:12Z</time>
      </trkpt>
      <trkpt lat="45.33551" lon="6.52167">
        <ele>1798.019</ele>
        <time>2009-12-14T08:51:41Z</time>
      </trkpt>
      <trkpt lat="45.33542" lon="6.52163">
        <ele>1798.979</ele>
        <time>2009-12-14T08:52:01Z</time>
      </trkpt>
      <trkpt lat="45.33544" lon="6.52154">
        <ele>1806.29</ele>
        <time>2009-12-14T08:52:36Z</time>
      </trkpt>
      <trkpt lat="45.33544" lon="6.52144">
        <ele>1812.735</ele>
        <time>2009-12-14T08:53:42Z</time>
      </trkpt>
      <trkpt lat="45.33537" lon="6.52136">
        <ele>1813.724</ele>
        <time>2009-12-14T08:54:05Z</time>
      </trkpt>
      <trkpt lat="45.33543" lon="6.52129">
        <ele>1819.828</ele>
        <time>2009-12-14T08:54:54Z</time>
      </trkpt>
      <trkpt lat="45.3355" lon="6.52121">
        <ele>1821.978</ele>
        <time>2009-12-14T08:55:13Z</time>
      </trkpt>
      <trkpt lat="45.33556" lon="6.52113">
        <ele>1824.188</ele>
        <time>2009-12-14T08:55:33Z</time>
      </trkpt>
      <trkpt lat="45.33557" lon="6.521">
        <ele>1826.657</ele>
        <time>2009-12-14T08:56:05Z</time>
      </trkpt>
      <trkpt lat="45.33564" lon="6.52095">
        <ele>1831.245</ele>
        <time>2009-12-14T08:56:25Z</time>
      </trkpt>
      <trkpt lat="45.3357" lon="6.52084">
        <ele>1833.328</ele>
        <time>2009-12-14T08:56:39Z</time>
      </trkpt>
      <trkpt lat="45.33576" lon="6.52077">
        <ele>1836.832</ele>
        <time>2009-12-14T08:56:57Z</time>
      </trkpt>
      <trkpt lat="45.33569" lon="6.52068">
        <ele>1838.434</ele>
        <time>2009-12-14T08:57:20Z</time>
      </trkpt>
      <trkpt lat="45.3356" lon="6.52066">
        <ele>1838.855</ele>
        <time>2009-12-14T08:57:37Z</time>
      </trkpt>
      <trkpt lat="45.33552" lon="6.52062">
        <ele>1841.342</ele>
        <time>2009-12-14T08:58:02Z</time>
      </trkpt>
      <trkpt lat="45.33558" lon="6.52054">
        <ele>1846.003</ele>
        <time>2009-12-14T08:58:15Z</time>
      </trkpt>
      <trkpt lat="45.33559" lon="6.5204">
        <ele>1847.389</ele>
        <time>2009-12-14T08:58:42Z</time>
      </trkpt>
      <trkpt lat="45.33559" lon="6.52027">
        <ele>1850.134</ele>
        <time>2009-12-14T08:58:52Z</time>
      </trkpt>
      <trkpt lat="45.33551" lon="6.52024">
        <ele>1854.551</ele>
        <time>2009-12-14T08:59:59Z</time>
      </trkpt>
      <trkpt lat="45.33542" lon="6.52024">
        <ele>1857.504</ele>
        <time>2009-12-14T09:00:14Z</time>
      </trkpt>
      <trkpt lat="45.33533" lon="6.52022">
        <ele>1860.716</ele>
        <time>2009-12-14T09:00:31Z</time>
      </trkpt>
      <trkpt lat="45.33535" lon="6.5201">
        <ele>1864.362</ele>
        <time>2009-12-14T09:01:01Z</time>
      </trkpt>
      <trkpt lat="45.33528" lon="6.52001">
        <ele>1864.086</ele>
        <time>2009-12-14T09:01:13Z</time>
      </trkpt>
      <trkpt lat="45.33522" lon="6.51991">
        <ele>1862.194</ele>
        <time>2009-12-14T09:01:32Z</time>
      </trkpt>
      <trkpt lat="45.33514" lon="6.51984">
        <ele>1863.082</ele>
        <time>2009-12-14T09:01:51Z</time>
      </trkpt>
      <trkpt lat="45.33505" lon="6.51983">
        <ele>1866.185</ele>
        <time>2009-12-14T09:02:11Z</time>
      </trkpt>
      <trkpt lat="45.33498" lon="6.51979">
        <ele>1871.78</ele>
        <time>2009-12-14T09:02:27Z</time>
      </trkpt>
      <trkpt lat="45.33493" lon="6.51969">
        <ele>1875.963</ele>
        <time>2009-12-14T09:02:46Z</time>
      </trkpt>
      <trkpt lat="45.3349" lon="6.51959">
        <ele>1881.93</ele>
        <time>2009-12-14T09:03:22Z</time>
      </trkpt>
      <trkpt lat="45.33488" lon="6.51947">
        <ele>1885.449</ele>
        <time>2009-12-14T09:03:48Z</time>
      </trkpt>
      <trkpt lat="45.33481" lon="6.51941">
        <ele>1890.653</ele>
        <time>2009-12-14T09:04:35Z</time>
      </trkpt>
      <trkpt lat="45.33477" lon="6.51929">
        <ele>1893.656</ele>
        <time>2009-12-14T09:04:59Z</time>
      </trkpt>
      <trkpt lat="45.33468" lon="6.51933">
        <ele>1897.302</ele>
        <time>2009-12-14T09:05:25Z</time>
      </trkpt>
      <trkpt lat="45.33467" lon="6.51922">
        <ele>1901.867</ele>
        <time>2009-12-14T09:05:52Z</time>
      </trkpt>
      <trkpt lat="45.33458" lon="6.51919">
        <ele>1902.909</ele>
        <time>2009-12-14T09:06:10Z</time>
      </trkpt>
      <trkpt lat="45.33449" lon="6.51917">
        <ele>1900.84</ele>
        <time>2009-12-14T09:06:28Z</time>
      </trkpt>
      <trkpt lat="45.3345" lon="6.51906">
        <ele>1906.15</ele>
        <time>2009-12-14T09:06:51Z</time>
      </trkpt>
      <trkpt lat="45.33452" lon="6.51894">
        <ele>1911.358</ele>
        <time>2009-12-14T09:07:16Z</time>
      </trkpt>
      <trkpt lat="45.33446" lon="6.51885">
        <ele>1913.548</ele>
        <time>2009-12-14T09:07:54Z</time>
      </trkpt>
      <trkpt lat="45.33437" lon="6.51884">
        <ele>1915.617</ele>
        <time>2009-12-14T09:08:19Z</time>
      </trkpt>
      <trkpt lat="45.3343" lon="6.5188">
        <ele>1921.434</ele>
        <time>2009-12-14T09:08:38Z</time>
      </trkpt>
      <trkpt lat="45.33422" lon="6.51875">
        <ele>1922.552</ele>
        <time>2009-12-14T09:09:00Z</time>
      </trkpt>
      <trkpt lat="45.33415" lon="6.51867">
        <ele>1925.364</ele>
        <time>2009-12-14T09:09:20Z</time>
      </trkpt>
      <trkpt lat="45.33411" lon="6.51856">
        <ele>1930.477</ele>
        <time>2009-12-14T09:09:47Z</time>
      </trkpt>
      <trkpt lat="45.33411" lon="6.51844">
        <ele>1934.095</ele>
        <time>2009-12-14T09:10:05Z</time>
      </trkpt>
      <trkpt lat="45.33411" lon="6.51831">
        <ele>1934.278</ele>
        <time>2009-12-14T09:10:24Z</time>
      </trkpt>
      <trkpt lat="45.33414" lon="6.51818">
        <ele>1934.409</ele>
        <time>2009-12-14T09:10:42Z</time>
      </trkpt>
      <trkpt lat="45.33422" lon="6.51813">
        <ele>1936.578</ele>
        <time>2009-12-14T09:11:05Z</time>
      </trkpt>
      <trkpt lat="45.33423" lon="6.51799">
        <ele>1937.915</ele>
        <time>2009-12-14T09:11:24Z</time>
      </trkpt>
      <trkpt lat="45.33417" lon="6.51789">
        <ele>1940.574</ele>
        <time>2009-12-14T09:11:41Z</time>
      </trkpt>
      <trkpt lat="45.33414" lon="6.51778">
        <ele>1944.56</ele>
        <time>2009-12-14T09:12:00Z</time>
      </trkpt>
      <trkpt lat="45.33416" lon="6.51766">
        <ele>1946.857</ele>
        <time>2009-12-14T09:12:30Z</time>
      </trkpt>
      <trkpt lat="45.3342" lon="6.51753">
        <ele>1948.178</ele>
        <time>2009-12-14T09:12:45Z</time>
      </trkpt>
      <trkpt lat="45.33419" lon="6.5174">
        <ele>1950.531</ele>
        <time>2009-12-14T09:13:13Z</time>
      </trkpt>
      <trkpt lat="45.33426" lon="6.51732">
        <ele>1951.484</ele>
        <time>2009-12-14T09:13:31Z</time>
      </trkpt>
      <trkpt lat="45.33435" lon="6.51729">
        <ele>1951.165</ele>
        <time>2009-12-14T09:13:45Z</time>
      </trkpt>
      <trkpt lat="45.33442" lon="6.51722">
        <ele>1954.315</ele>
        <time>2009-12-14T09:14:04Z</time>
      </trkpt>
      <trkpt lat="45.33434" lon="6.51716">
        <ele>1956.037</ele>
        <time>2009-12-14T09:14:26Z</time>
      </trkpt>
      <trkpt lat="45.33428" lon="6.51705">
        <ele>1958.365</ele>
        <time>2009-12-14T09:14:53Z</time>
      </trkpt>
      <trkpt lat="45.33422" lon="6.51698">
        <ele>1962.193</ele>
        <time>2009-12-14T09:15:11Z</time>
      </trkpt>
      <trkpt lat="45.33413" lon="6.51692">
        <ele>1963.912</ele>
        <time>2009-12-14T09:15:36Z</time>
      </trkpt>
      <trkpt lat="45.33405" lon="6.51685">
        <ele>1964.74</ele>
        <time>2009-12-14T09:15:59Z</time>
      </trkpt>
      <trkpt lat="45.33403" lon="6.51676">
        <ele>1971.91</ele>
        <time>2009-12-14T09:17:07Z</time>
      </trkpt>
      <trkpt lat="45.3341" lon="6.51669">
        <ele>1976.037</ele>
        <time>2009-12-14T09:17:21Z</time>
      </trkpt>
      <trkpt lat="45.33417" lon="6.51662">
        <ele>1978.287</ele>
        <time>2009-12-14T09:17:43Z</time>
      </trkpt>
      <trkpt lat="45.33416" lon="6.51652">
        <ele>1984.218</ele>
        <time>2009-12-14T09:18:14Z</time>
      </trkpt>
      <trkpt lat="45.33407" lon="6.51652">
        <ele>1989.24</ele>
        <time>2009-12-14T09:18:30Z</time>
      </trkpt>
      <trkpt lat="45.33398" lon="6.51652">
        <ele>1992.431</ele>
        <time>2009-12-14T09:18:42Z</time>
      </trkpt>
      <trkpt lat="45.3339" lon="6.51648">
        <ele>1990.397</ele>
        <time>2009-12-14T09:19:02Z</time>
      </trkpt>
      <trkpt lat="45.33397" lon="6.5164">
        <ele>1993.256</ele>
        <time>2009-12-14T09:19:20Z</time>
      </trkpt>
      <trkpt lat="45.33405" lon="6.51632">
        <ele>1995.51</ele>
        <time>2009-12-14T09:19:43Z</time>
      </trkpt>
      <trkpt lat="45.33398" lon="6.51624">
        <ele>1996.295</ele>
        <time>2009-12-14T09:19:59Z</time>
      </trkpt>
      <trkpt lat="45.33391" lon="6.51615">
        <ele>1994.862</ele>
        <time>2009-12-14T09:20:13Z</time>
      </trkpt>
      <trkpt lat="45.334" lon="6.51613">
        <ele>1997.779</ele>
        <time>2009-12-14T09:20:28Z</time>
      </trkpt>
      <trkpt lat="45.33408" lon="6.51613">
        <ele>2002.617</ele>
        <time>2009-12-14T09:20:42Z</time>
      </trkpt>
      <trkpt lat="45.33414" lon="6.51605">
        <ele>2006.955</ele>
        <time>2009-12-14T09:21:01Z</time>
      </trkpt>
      <trkpt lat="45.33407" lon="6.51599">
        <ele>2009.813</ele>
        <time>2009-12-14T09:21:25Z</time>
      </trkpt>
      <trkpt lat="45.33406" lon="6.51587">
        <ele>2013.702</ele>
        <time>2009-12-14T09:22:01Z</time>
      </trkpt>
      <trkpt lat="45.33399" lon="6.51582">
        <ele>2017.728</ele>
        <time>2009-12-14T09:22:15Z</time>
      </trkpt>
      <trkpt lat="45.33405" lon="6.51572">
        <ele>2019.157</ele>
        <time>2009-12-14T09:22:50Z</time>
      </trkpt>
      <trkpt lat="45.33409" lon="6.51561">
        <ele>2022.568</ele>
        <time>2009-12-14T09:23:07Z</time>
      </trkpt>
      <trkpt lat="45.33416" lon="6.51552">
        <ele>2024.107</ele>
        <time>2009-12-14T09:23:22Z</time>
      </trkpt>
      <trkpt lat="45.33408" lon="6.51544">
        <ele>2027.243</ele>
        <time>2009-12-14T09:23:51Z</time>
      </trkpt>
      <trkpt lat="45.33399" lon="6.51544">
        <ele>2031.525</ele>
        <time>2009-12-14T09:24:11Z</time>
      </trkpt>
      <trkpt lat="45.33391" lon="6.51541">
        <ele>2034.445</ele>
        <time>2009-12-14T09:24:25Z</time>
      </trkpt>
      <trkpt lat="45.33382" lon="6.51538">
        <ele>2035.789</ele>
        <time>2009-12-14T09:24:40Z</time>
      </trkpt>
      <trkpt lat="45.33384" lon="6.51525">
        <ele>2038.138</ele>
        <time>2009-12-14T09:25:06Z</time>
      </trkpt>
      <trkpt lat="45.33391" lon="6.51519">
        <ele>2043.054</ele>
        <time>2009-12-14T09:25:21Z</time>
      </trkpt>
      <trkpt lat="45.33386" lon="6.51509">
        <ele>2046.971</ele>
        <time>2009-12-14T09:25:54Z</time>
      </trkpt>
      <trkpt lat="45.33378" lon="6.51505">
        <ele>2047.895</ele>
        <time>2009-12-14T09:26:07Z</time>
      </trkpt>
      <trkpt lat="45.33375" lon="6.51493">
        <ele>2049.641</ele>
        <time>2009-12-14T09:26:48Z</time>
      </trkpt>
      <trkpt lat="45.33367" lon="6.51489">
        <ele>2050.491</ele>
        <time>2009-12-14T09:27:05Z</time>
      </trkpt>
      <trkpt lat="45.33358" lon="6.51486">
        <ele>2052.927</ele>
        <time>2009-12-14T09:27:21Z</time>
      </trkpt>
      <trkpt lat="45.33349" lon="6.51484">
        <ele>2054.072</ele>
        <time>2009-12-14T09:27:35Z</time>
      </trkpt>
      <trkpt lat="45.3334" lon="6.51479">
        <ele>2054.647</ele>
        <time>2009-12-14T09:27:50Z</time>
      </trkpt>
      <trkpt lat="45.33332" lon="6.51476">
        <ele>2057.372</ele>
        <time>2009-12-14T09:28:13Z</time>
      </trkpt>
      <trkpt lat="45.33337" lon="6.51468">
        <ele>2063.403</ele>
        <time>2009-12-14T09:28:32Z</time>
      </trkpt>
      <trkpt lat="45.33343" lon="6.51459">
        <ele>2063.958</ele>
        <time>2009-12-14T09:28:49Z</time>
      </trkpt>
      <trkpt lat="45.33346" lon="6.51447">
        <ele>2067.974</ele>
        <time>2009-12-14T09:29:05Z</time>
      </trkpt>
      <trkpt lat="45.33345" lon="6.51433">
        <ele>2067.278</ele>
        <time>2009-12-14T09:35:39Z</time>
      </trkpt>
      <trkpt lat="45.33343" lon="6.5142">
        <ele>2068.231</ele>
        <time>2009-12-14T09:35:47Z</time>
      </trkpt>
      <trkpt lat="45.33342" lon="6.51408">
        <ele>2068.404</ele>
        <time>2009-12-14T09:35:55Z</time>
      </trkpt>
      <trkpt lat="45.33341" lon="6.51395">
        <ele>2069.982</ele>
        <time>2009-12-14T09:36:15Z</time>
      </trkpt>
      <trkpt lat="45.33339" lon="6.51382">
        <ele>2070.193</ele>
        <time>2009-12-14T09:36:23Z</time>
      </trkpt>
      <trkpt lat="45.33335" lon="6.51371">
        <ele>2074.287</ele>
        <time>2009-12-14T09:36:35Z</time>
      </trkpt>
      <trkpt lat="45.33332" lon="6.5136">
        <ele>2076.94</ele>
        <time>2009-12-14T09:36:47Z</time>
      </trkpt>
      <trkpt lat="45.3333" lon="6.51346">
        <ele>2077.457</ele>
        <time>2009-12-14T09:36:58Z</time>
      </trkpt>
      <trkpt lat="45.33325" lon="6.51334">
        <ele>2076.382</ele>
        <time>2009-12-14T09:37:16Z</time>
      </trkpt>
      <trkpt lat="45.33323" lon="6.51322">
        <ele>2078.677</ele>
        <time>2009-12-14T09:37:27Z</time>
      </trkpt>
      <trkpt lat="45.3332" lon="6.51312">
        <ele>2083.196</ele>
        <time>2009-12-14T09:37:39Z</time>
      </trkpt>
      <trkpt lat="45.33317" lon="6.513">
        <ele>2086.582</ele>
        <time>2009-12-14T09:37:51Z</time>
      </trkpt>
      <trkpt lat="45.33314" lon="6.51287">
        <ele>2086.792</ele>
        <time>2009-12-14T09:38:06Z</time>
      </trkpt>
      <trkpt lat="45.3331" lon="6.51275">
        <ele>2086.86</ele>
        <time>2009-12-14T09:38:19Z</time>
      </trkpt>
      <trkpt lat="45.33309" lon="6.51262">
        <ele>2086.937</ele>
        <time>2009-12-14T09:38:35Z</time>
      </trkpt>
      <trkpt lat="45.33307" lon="6.51249">
        <ele>2088.893</ele>
        <time>2009-12-14T09:38:49Z</time>
      </trkpt>
      <trkpt lat="45.33308" lon="6.51236">
        <ele>2090.14</ele>
        <time>2009-12-14T09:39:02Z</time>
      </trkpt>
      <trkpt lat="45.33308" lon="6.51223">
        <ele>2090.973</ele>
        <time>2009-12-14T09:39:14Z</time>
      </trkpt>
      <trkpt lat="45.33307" lon="6.5121">
        <ele>2093.156</ele>
        <time>2009-12-14T09:39:28Z</time>
      </trkpt>
      <trkpt lat="45.33308" lon="6.51197">
        <ele>2091.561</ele>
        <time>2009-12-14T09:39:44Z</time>
      </trkpt>
      <trkpt lat="45.33311" lon="6.51185">
        <ele>2093.033</ele>
        <time>2009-12-14T09:39:57Z</time>
      </trkpt>
      <trkpt lat="45.33315" lon="6.51173">
        <ele>2092.857</ele>
        <time>2009-12-14T09:40:10Z</time>
      </trkpt>
      <trkpt lat="45.3332" lon="6.51161">
        <ele>2094.66</ele>
        <time>2009-12-14T09:40:25Z</time>
      </trkpt>
      <trkpt lat="45.33314" lon="6.5115">
        <ele>2096.86</ele>
        <time>2009-12-14T09:40:49Z</time>
      </trkpt>
      <trkpt lat="45.33309" lon="6.5114">
        <ele>2097.349</ele>
        <time>2009-12-14T09:41:00Z</time>
      </trkpt>
      <trkpt lat="45.33312" lon="6.51129">
        <ele>2100.755</ele>
        <time>2009-12-14T09:41:25Z</time>
      </trkpt>
      <trkpt lat="45.3332" lon="6.51124">
        <ele>2102.749</ele>
        <time>2009-12-14T09:41:41Z</time>
      </trkpt>
      <trkpt lat="45.33328" lon="6.51118">
        <ele>2105.995</ele>
        <time>2009-12-14T09:41:58Z</time>
      </trkpt>
      <trkpt lat="45.33322" lon="6.5111">
        <ele>2110.622</ele>
        <time>2009-12-14T09:42:13Z</time>
      </trkpt>
      <trkpt lat="45.33314" lon="6.51104">
        <ele>2112.859</ele>
        <time>2009-12-14T09:42:33Z</time>
      </trkpt>
      <trkpt lat="45.33308" lon="6.51097">
        <ele>2117.721</ele>
        <time>2009-12-14T09:42:47Z</time>
      </trkpt>
      <trkpt lat="45.33313" lon="6.5109">
        <ele>2123.651</ele>
        <time>2009-12-14T09:43:16Z</time>
      </trkpt>
      <trkpt lat="45.33322" lon="6.51085">
        <ele>2125.533</ele>
        <time>2009-12-14T09:43:32Z</time>
      </trkpt>
      <trkpt lat="45.33331" lon="6.51082">
        <ele>2125.317</ele>
        <time>2009-12-14T09:43:44Z</time>
      </trkpt>
      <trkpt lat="45.33341" lon="6.51082">
        <ele>2127.075</ele>
        <time>2009-12-14T09:44:00Z</time>
      </trkpt>
      <trkpt lat="45.33349" lon="6.51084">
        <ele>2129.177</ele>
        <time>2009-12-14T09:44:16Z</time>
      </trkpt>
      <trkpt lat="45.33346" lon="6.51073">
        <ele>2132.747</ele>
        <time>2009-12-14T09:44:42Z</time>
      </trkpt>
      <trkpt lat="45.33345" lon="6.51061">
        <ele>2137.092</ele>
        <time>2009-12-14T09:45:05Z</time>
      </trkpt>
      <trkpt lat="45.33338" lon="6.51053">
        <ele>2138.12</ele>
        <time>2009-12-14T09:45:25Z</time>
      </trkpt>
      <trkpt lat="45.33331" lon="6.51045">
        <ele>2139.679</ele>
        <time>2009-12-14T09:45:43Z</time>
      </trkpt>
      <trkpt lat="45.33323" lon="6.51037">
        <ele>2141.02</ele>
        <time>2009-12-14T09:46:02Z</time>
      </trkpt>
      <trkpt lat="45.33315" lon="6.51032">
        <ele>2145.072</ele>
        <time>2009-12-14T09:46:18Z</time>
      </trkpt>
      <trkpt lat="45.33307" lon="6.51025">
        <ele>2146.057</ele>
        <time>2009-12-14T09:46:44Z</time>
      </trkpt>
      <trkpt lat="45.33299" lon="6.51019">
        <ele>2148.337</ele>
        <time>2009-12-14T09:47:04Z</time>
      </trkpt>
      <trkpt lat="45.33292" lon="6.51011">
        <ele>2149.364</ele>
        <time>2009-12-14T09:47:19Z</time>
      </trkpt>
      <trkpt lat="45.33286" lon="6.51001">
        <ele>2151.345</ele>
        <time>2009-12-14T09:47:32Z</time>
      </trkpt>
      <trkpt lat="45.33287" lon="6.50992">
        <ele>2158.973</ele>
        <time>2009-12-14T09:47:50Z</time>
      </trkpt>
      <trkpt lat="45.33292" lon="6.50985">
        <ele>2164.83</ele>
        <time>2009-12-14T09:48:06Z</time>
      </trkpt>
      <trkpt lat="45.33297" lon="6.50974">
        <ele>2166.157</ele>
        <time>2009-12-14T09:48:20Z</time>
      </trkpt>
      <trkpt lat="45.33296" lon="6.5096">
        <ele>2167.154</ele>
        <time>2009-12-14T09:48:44Z</time>
      </trkpt>
      <trkpt lat="45.33296" lon="6.50948">
        <ele>2169.808</ele>
        <time>2009-12-14T09:48:55Z</time>
      </trkpt>
      <trkpt lat="45.33302" lon="6.50943">
        <ele>2176.814</ele>
        <time>2009-12-14T09:49:42Z</time>
      </trkpt>
      <trkpt lat="45.33311" lon="6.50947">
        <ele>2176.843</ele>
        <time>2009-12-14T09:50:06Z</time>
      </trkpt>
      <trkpt lat="45.33319" lon="6.50952">
        <ele>2175.996</ele>
        <time>2009-12-14T09:50:24Z</time>
      </trkpt>
      <trkpt lat="45.33327" lon="6.50957">
        <ele>2178.152</ele>
        <time>2009-12-14T09:50:39Z</time>
      </trkpt>
      <trkpt lat="45.33337" lon="6.50959">
        <ele>2181.352</ele>
        <time>2009-12-14T09:50:55Z</time>
      </trkpt>
      <trkpt lat="45.33345" lon="6.50956">
        <ele>2186.537</ele>
        <time>2009-12-14T09:51:13Z</time>
      </trkpt>
      <trkpt lat="45.33346" lon="6.50944">
        <ele>2189.484</ele>
        <time>2009-12-14T09:51:31Z</time>
      </trkpt>
      <trkpt lat="45.33342" lon="6.50932">
        <ele>2189.831</ele>
        <time>2009-12-14T09:51:46Z</time>
      </trkpt>
      <trkpt lat="45.33338" lon="6.50921">
        <ele>2194.097</ele>
        <time>2009-12-14T09:52:15Z</time>
      </trkpt>
      <trkpt lat="45.33334" lon="6.50906">
        <ele>2195.561</ele>
        <time>2009-12-14T09:52:33Z</time>
      </trkpt>
      <trkpt lat="45.33328" lon="6.50895">
        <ele>2199.045</ele>
        <time>2009-12-14T09:52:55Z</time>
      </trkpt>
      <trkpt lat="45.33324" lon="6.50885">
        <ele>2201.752</ele>
        <time>2009-12-14T09:53:05Z</time>
      </trkpt>
      <trkpt lat="45.33319" lon="6.50874">
        <ele>2205.123</ele>
        <time>2009-12-14T09:53:19Z</time>
      </trkpt>
      <trkpt lat="45.33314" lon="6.50863">
        <ele>2206.338</ele>
        <time>2009-12-14T09:53:38Z</time>
      </trkpt>
      <trkpt lat="45.3331" lon="6.50853">
        <ele>2211.281</ele>
        <time>2009-12-14T09:53:52Z</time>
      </trkpt>
      <trkpt lat="45.33306" lon="6.50841">
        <ele>2211.936</ele>
        <time>2009-12-14T09:54:16Z</time>
      </trkpt>
      <trkpt lat="45.333" lon="6.50831">
        <ele>2213.076</ele>
        <time>2009-12-14T09:54:27Z</time>
      </trkpt>
      <trkpt lat="45.33293" lon="6.50822">
        <ele>2215.561</ele>
        <time>2009-12-14T09:54:42Z</time>
      </trkpt>
      <trkpt lat="45.33286" lon="6.50813">
        <ele>2218.347</ele>
        <time>2009-12-14T09:54:59Z</time>
      </trkpt>
      <trkpt lat="45.3328" lon="6.50806">
        <ele>2223.822</ele>
        <time>2009-12-14T09:55:14Z</time>
      </trkpt>
      <trkpt lat="45.33273" lon="6.50796">
        <ele>2224.883</ele>
        <time>2009-12-14T09:55:31Z</time>
      </trkpt>
      <trkpt lat="45.33264" lon="6.50786">
        <ele>2227.071</ele>
        <time>2009-12-14T09:56:20Z</time>
      </trkpt>
      <trkpt lat="45.33259" lon="6.50773">
        <ele>2227.886</ele>
        <time>2009-12-14T09:56:25Z</time>
      </trkpt>
      <trkpt lat="45.33254" lon="6.50764">
        <ele>2232.174</ele>
        <time>2009-12-14T09:56:42Z</time>
      </trkpt>
      <trkpt lat="45.33248" lon="6.50755">
        <ele>2234.05</ele>
        <time>2009-12-14T09:56:59Z</time>
      </trkpt>
      <trkpt lat="45.3324" lon="6.50749">
        <ele>2236.507</ele>
        <time>2009-12-14T09:57:20Z</time>
      </trkpt>
      <trkpt lat="45.33233" lon="6.50739">
        <ele>2237.407</ele>
        <time>2009-12-14T09:57:40Z</time>
      </trkpt>
      <trkpt lat="45.33227" lon="6.5073">
        <ele>2240.202</ele>
        <time>2009-12-14T09:57:52Z</time>
      </trkpt>
      <trkpt lat="45.33218" lon="6.50726">
        <ele>2242.991</ele>
        <time>2009-12-14T09:58:05Z</time>
      </trkpt>
      <trkpt lat="45.3321" lon="6.50721">
        <ele>2244.724</ele>
        <time>2009-12-14T09:58:16Z</time>
      </trkpt>
      <trkpt lat="45.33201" lon="6.50716">
        <ele>2248.558</ele>
        <time>2009-12-14T09:58:32Z</time>
      </trkpt>
      <trkpt lat="45.33192" lon="6.50711">
        <ele>2249.836</ele>
        <time>2009-12-14T09:58:45Z</time>
      </trkpt>
      <trkpt lat="45.33187" lon="6.50701">
        <ele>2251.215</ele>
        <time>2009-12-14T09:59:03Z</time>
      </trkpt>
      <trkpt lat="45.33183" lon="6.5069">
        <ele>2250.611</ele>
        <time>2009-12-14T09:59:15Z</time>
      </trkpt>
      <trkpt lat="45.33179" lon="6.50679">
        <ele>2254.359</ele>
        <time>2009-12-14T09:59:30Z</time>
      </trkpt>
      <trkpt lat="45.33175" lon="6.50668">
        <ele>2257.214</ele>
        <time>2009-12-14T09:59:48Z</time>
      </trkpt>
      <trkpt lat="45.3317" lon="6.50657">
        <ele>2258.623</ele>
        <time>2009-12-14T10:00:03Z</time>
      </trkpt>
      <trkpt lat="45.33164" lon="6.50648">
        <ele>2260.267</ele>
        <time>2009-12-14T10:00:18Z</time>
      </trkpt>
      <trkpt lat="45.33156" lon="6.50642">
        <ele>2262.564</ele>
        <time>2009-12-14T10:00:35Z</time>
      </trkpt>
      <trkpt lat="45.33149" lon="6.50634">
        <ele>2264.78</ele>
        <time>2009-12-14T10:00:51Z</time>
      </trkpt>
      <trkpt lat="45.33143" lon="6.50624">
        <ele>2267.155</ele>
        <time>2009-12-14T10:01:12Z</time>
      </trkpt>
      <trkpt lat="45.33134" lon="6.50619">
        <ele>2270.12</ele>
        <time>2009-12-14T10:01:25Z</time>
      </trkpt>
      <trkpt lat="45.33126" lon="6.50615">
        <ele>2272.724</ele>
        <time>2009-12-14T10:01:35Z</time>
      </trkpt>
      <trkpt lat="45.33117" lon="6.5061">
        <ele>2274.336</ele>
        <time>2009-12-14T10:01:55Z</time>
      </trkpt>
      <trkpt lat="45.33108" lon="6.50606">
        <ele>2276.914</ele>
        <time>2009-12-14T10:02:12Z</time>
      </trkpt>
      <trkpt lat="45.331" lon="6.50605">
        <ele>2280.58</ele>
        <time>2009-12-14T10:02:26Z</time>
      </trkpt>
      <trkpt lat="45.33091" lon="6.50607">
        <ele>2282.894</ele>
        <time>2009-12-14T10:02:43Z</time>
      </trkpt>
      <trkpt lat="45.33082" lon="6.50607">
        <ele>2285.522</ele>
        <time>2009-12-14T10:02:59Z</time>
      </trkpt>
      <trkpt lat="45.33072" lon="6.50609">
        <ele>2287.031</ele>
        <time>2009-12-14T10:03:10Z</time>
      </trkpt>
      <trkpt lat="45.33063" lon="6.50613">
        <ele>2286.299</ele>
        <time>2009-12-14T10:03:23Z</time>
      </trkpt>
      <trkpt lat="45.33054" lon="6.50614">
        <ele>2285.905</ele>
        <time>2009-12-14T10:03:33Z</time>
      </trkpt>
      <trkpt lat="45.33044" lon="6.50615">
        <ele>2285.381</ele>
        <time>2009-12-14T10:03:44Z</time>
      </trkpt>
      <trkpt lat="45.33035" lon="6.50618">
        <ele>2285.506</ele>
        <time>2009-12-14T10:03:55Z</time>
      </trkpt>
      <trkpt lat="45.33026" lon="6.50619">
        <ele>2285.946</ele>
        <time>2009-12-14T10:04:07Z</time>
      </trkpt>
      <trkpt lat="45.33016" lon="6.5062">
        <ele>2286.538</ele>
        <time>2009-12-14T10:04:17Z</time>
      </trkpt>
      <trkpt lat="45.33006" lon="6.5062">
        <ele>2286.856</ele>
        <time>2009-12-14T10:04:30Z</time>
      </trkpt>
      <trkpt lat="45.32997" lon="6.50618">
        <ele>2288.614</ele>
        <time>2009-12-14T10:04:42Z</time>
      </trkpt>
      <trkpt lat="45.32988" lon="6.50617">
        <ele>2290.362</ele>
        <time>2009-12-14T10:04:55Z</time>
      </trkpt>
      <trkpt lat="45.32979" lon="6.50616">
        <ele>2292.894</ele>
        <time>2009-12-14T10:05:02Z</time>
      </trkpt>
      <trkpt lat="45.3297" lon="6.50614">
        <ele>2295.81</ele>
        <time>2009-12-14T10:05:13Z</time>
      </trkpt>
      <trkpt lat="45.32961" lon="6.50613">
        <ele>2298.32</ele>
        <time>2009-12-14T10:05:23Z</time>
      </trkpt>
      <trkpt lat="45.32952" lon="6.50613">
        <ele>2300.7</ele>
        <time>2009-12-14T10:05:39Z</time>
      </trkpt>
      <trkpt lat="45.32942" lon="6.50611">
        <ele>2300.867</ele>
        <time>2009-12-14T10:05:50Z</time>
      </trkpt>
      <trkpt lat="45.32932" lon="6.5061">
        <ele>2302.513</ele>
        <time>2009-12-14T10:06:03Z</time>
      </trkpt>
      <trkpt lat="45.32924" lon="6.50611">
        <ele>2306.891</ele>
        <time>2009-12-14T10:06:25Z</time>
      </trkpt>
      <trkpt lat="45.32915" lon="6.50611">
        <ele>2310.147</ele>
        <time>2009-12-14T10:06:43Z</time>
      </trkpt>
      <trkpt lat="45.32905" lon="6.50613">
        <ele>2310.963</ele>
        <time>2009-12-14T10:06:54Z</time>
      </trkpt>
      <trkpt lat="45.32896" lon="6.50615">
        <ele>2311.631</ele>
        <time>2009-12-14T10:07:08Z</time>
      </trkpt>
      <trkpt lat="45.32887" lon="6.50617">
        <ele>2311.612</ele>
        <time>2009-12-14T10:07:25Z</time>
      </trkpt>
      <trkpt lat="45.32877" lon="6.50616">
        <ele>2313.13</ele>
        <time>2009-12-14T10:07:41Z</time>
      </trkpt>
      <trkpt lat="45.32868" lon="6.50615">
        <ele>2313.71</ele>
        <time>2009-12-14T10:07:59Z</time>
      </trkpt>
      <trkpt lat="45.32859" lon="6.50614">
        <ele>2316.204</ele>
        <time>2009-12-14T10:08:16Z</time>
      </trkpt>
      <trkpt lat="45.3285" lon="6.50617">
        <ele>2318.665</ele>
        <time>2009-12-14T10:08:29Z</time>
      </trkpt>
      <trkpt lat="45.32841" lon="6.50617">
        <ele>2321.538</ele>
        <time>2009-12-14T10:08:44Z</time>
      </trkpt>
      <trkpt lat="45.32831" lon="6.50619">
        <ele>2322.276</ele>
        <time>2009-12-14T10:08:59Z</time>
      </trkpt>
      <trkpt lat="45.32822" lon="6.50619">
        <ele>2324.95</ele>
        <time>2009-12-14T10:09:11Z</time>
      </trkpt>
      <trkpt lat="45.32813" lon="6.5062">
        <ele>2328.276</ele>
        <time>2009-12-14T10:09:24Z</time>
      </trkpt>
      <trkpt lat="45.32804" lon="6.5062">
        <ele>2331.571</ele>
        <time>2009-12-14T10:09:36Z</time>
      </trkpt>
      <trkpt lat="45.32794" lon="6.50618">
        <ele>2334.217</ele>
        <time>2009-12-14T10:09:48Z</time>
      </trkpt>
      <trkpt lat="45.32785" lon="6.50614">
        <ele>2334.042</ele>
        <time>2009-12-14T10:09:58Z</time>
      </trkpt>
      <trkpt lat="45.32777" lon="6.50609">
        <ele>2336.669</ele>
        <time>2009-12-14T10:10:11Z</time>
      </trkpt>
      <trkpt lat="45.32768" lon="6.50605">
        <ele>2338.254</ele>
        <time>2009-12-14T10:10:22Z</time>
      </trkpt>
      <trkpt lat="45.32758" lon="6.50602">
        <ele>2338.757</ele>
        <time>2009-12-14T10:10:31Z</time>
      </trkpt>
      <trkpt lat="45.32749" lon="6.50598">
        <ele>2337.264</ele>
        <time>2009-12-14T10:10:39Z</time>
      </trkpt>
      <trkpt lat="45.32741" lon="6.50596">
        <ele>2334.729</ele>
        <time>2009-12-14T10:10:47Z</time>
      </trkpt>
      <trkpt lat="45.32731" lon="6.50592">
        <ele>2334.592</ele>
        <time>2009-12-14T10:10:58Z</time>
      </trkpt>
      <trkpt lat="45.32722" lon="6.50588">
        <ele>2336.845</ele>
        <time>2009-12-14T10:11:09Z</time>
      </trkpt>
      <trkpt lat="45.32712" lon="6.50584">
        <ele>2337.898</ele>
        <time>2009-12-14T10:11:20Z</time>
      </trkpt>
      <trkpt lat="45.32703" lon="6.50581">
        <ele>2338.834</ele>
        <time>2009-12-14T10:11:31Z</time>
      </trkpt>
      <trkpt lat="45.32695" lon="6.50576">
        <ele>2338.871</ele>
        <time>2009-12-14T10:11:39Z</time>
      </trkpt>
      <trkpt lat="45.32686" lon="6.50572">
        <ele>2338.697</ele>
        <time>2009-12-14T10:11:48Z</time>
      </trkpt>
      <trkpt lat="45.32677" lon="6.50568">
        <ele>2340.531</ele>
        <time>2009-12-14T10:11:59Z</time>
      </trkpt>
      <trkpt lat="45.32668" lon="6.50565">
        <ele>2339.37</ele>
        <time>2009-12-14T10:12:10Z</time>
      </trkpt>
      <trkpt lat="45.32659" lon="6.5056">
        <ele>2338.788</ele>
        <time>2009-12-14T10:12:20Z</time>
      </trkpt>
      <trkpt lat="45.32649" lon="6.5056">
        <ele>2335.821</ele>
        <time>2009-12-14T10:12:32Z</time>
      </trkpt>
      <trkpt lat="45.32641" lon="6.50556">
        <ele>2338.017</ele>
        <time>2009-12-14T10:12:43Z</time>
      </trkpt>
      <trkpt lat="45.32631" lon="6.50559">
        <ele>2337.082</ele>
        <time>2009-12-14T10:12:56Z</time>
      </trkpt>
      <trkpt lat="45.32623" lon="6.50564">
        <ele>2337.997</ele>
        <time>2009-12-14T10:13:08Z</time>
      </trkpt>
      <trkpt lat="45.32614" lon="6.50568">
        <ele>2339.546</ele>
        <time>2009-12-14T10:13:25Z</time>
      </trkpt>
      <trkpt lat="45.32605" lon="6.50573">
        <ele>2337.283</ele>
        <time>2009-12-14T10:13:39Z</time>
      </trkpt>
      <trkpt lat="45.32596" lon="6.50575">
        <ele>2338.152</ele>
        <time>2009-12-14T10:13:56Z</time>
      </trkpt>
      <trkpt lat="45.32587" lon="6.50575">
        <ele>2340.995</ele>
        <time>2009-12-14T10:14:11Z</time>
      </trkpt>
      <trkpt lat="45.32578" lon="6.50575">
        <ele>2343.041</ele>
        <time>2009-12-14T10:14:25Z</time>
      </trkpt>
      <trkpt lat="45.32569" lon="6.50574">
        <ele>2346.175</ele>
        <time>2009-12-14T10:14:40Z</time>
      </trkpt>
      <trkpt lat="45.3256" lon="6.50577">
        <ele>2349.684</ele>
        <time>2009-12-14T10:14:53Z</time>
      </trkpt>
      <trkpt lat="45.32551" lon="6.50576">
        <ele>2351.223</ele>
        <time>2009-12-14T10:15:07Z</time>
      </trkpt>
      <trkpt lat="45.32542" lon="6.50576">
        <ele>2352.69</ele>
        <time>2009-12-14T10:15:20Z</time>
      </trkpt>
      <trkpt lat="45.32533" lon="6.50578">
        <ele>2352.596</ele>
        <time>2009-12-14T10:15:35Z</time>
      </trkpt>
      <trkpt lat="45.32525" lon="6.5058">
        <ele>2356.617</ele>
        <time>2009-12-14T10:15:49Z</time>
      </trkpt>
      <trkpt lat="45.32516" lon="6.50579">
        <ele>2359.067</ele>
        <time>2009-12-14T10:16:03Z</time>
      </trkpt>
      <trkpt lat="45.32508" lon="6.50584">
        <ele>2362.161</ele>
        <time>2009-12-14T10:16:18Z</time>
      </trkpt>
      <trkpt lat="45.32499" lon="6.5059">
        <ele>2363.051</ele>
        <time>2009-12-14T10:16:31Z</time>
      </trkpt>
      <trkpt lat="45.32492" lon="6.50597">
        <ele>2365.487</ele>
        <time>2009-12-14T10:16:43Z</time>
      </trkpt>
      <trkpt lat="45.32484" lon="6.50605">
        <ele>2366.066</ele>
        <time>2009-12-14T10:17:00Z</time>
      </trkpt>
      <trkpt lat="45.32477" lon="6.50614">
        <ele>2367.417</ele>
        <time>2009-12-14T10:17:14Z</time>
      </trkpt>
      <trkpt lat="45.32468" lon="6.50619">
        <ele>2368.642</ele>
        <time>2009-12-14T10:17:28Z</time>
      </trkpt>
      <trkpt lat="45.3246" lon="6.50624">
        <ele>2367.023</ele>
        <time>2009-12-14T10:17:42Z</time>
      </trkpt>
      <trkpt lat="45.32453" lon="6.50632">
        <ele>2369.524</ele>
        <time>2009-12-14T10:17:58Z</time>
      </trkpt>
      <trkpt lat="45.32444" lon="6.50636">
        <ele>2371.918</ele>
        <time>2009-12-14T10:18:18Z</time>
      </trkpt>
      <trkpt lat="45.32435" lon="6.50638">
        <ele>2372.518</ele>
        <time>2009-12-14T10:18:36Z</time>
      </trkpt>
      <trkpt lat="45.32426" lon="6.50642">
        <ele>2375.274</ele>
        <time>2009-12-14T10:18:57Z</time>
      </trkpt>
      <trkpt lat="45.32417" lon="6.50645">
        <ele>2378.625</ele>
        <time>2009-12-14T10:19:11Z</time>
      </trkpt>
      <trkpt lat="45.3241" lon="6.50649">
        <ele>2384.038</ele>
        <time>2009-12-14T10:19:27Z</time>
      </trkpt>
      <trkpt lat="45.32403" lon="6.50656">
        <ele>2386.877</ele>
        <time>2009-12-14T10:19:41Z</time>
      </trkpt>
      <trkpt lat="45.32394" lon="6.5066">
        <ele>2385.9</ele>
        <time>2009-12-14T10:19:55Z</time>
      </trkpt>
      <trkpt lat="45.32387" lon="6.50668">
        <ele>2388.28</ele>
        <time>2009-12-14T10:20:08Z</time>
      </trkpt>
      <trkpt lat="45.32378" lon="6.50671">
        <ele>2388.821</ele>
        <time>2009-12-14T10:20:25Z</time>
      </trkpt>
      <trkpt lat="45.32369" lon="6.50671">
        <ele>2389.97</ele>
        <time>2009-12-14T10:20:39Z</time>
      </trkpt>
      <trkpt lat="45.32361" lon="6.5067">
        <ele>2393.628</ele>
        <time>2009-12-14T10:20:54Z</time>
      </trkpt>
      <trkpt lat="45.32359" lon="6.50681">
        <ele>2398.677</ele>
        <time>2009-12-14T10:21:06Z</time>
      </trkpt>
      <trkpt lat="45.32352" lon="6.50674">
        <ele>2400.733</ele>
        <time>2009-12-14T10:23:00Z</time>
      </trkpt>
      <trkpt lat="45.32346" lon="6.50664">
        <ele>2399.711</ele>
        <time>2009-12-14T10:31:10Z</time>
      </trkpt>
      <trkpt lat="45.3234" lon="6.50655">
        <ele>2401.408</ele>
        <time>2009-12-14T10:32:10Z</time>
      </trkpt>
      <trkpt lat="45.32339" lon="6.50641">
        <ele>2402.774</ele>
        <time>2009-12-14T10:32:19Z</time>
      </trkpt>
      <trkpt lat="45.32336" lon="6.5063">
        <ele>2406.246</ele>
        <time>2009-12-14T10:32:31Z</time>
      </trkpt>
      <trkpt lat="45.32332" lon="6.50619">
        <ele>2408.274</ele>
        <time>2009-12-14T10:33:01Z</time>
      </trkpt>
      <trkpt lat="45.3233" lon="6.50606">
        <ele>2409.099</ele>
        <time>2009-12-14T10:33:08Z</time>
      </trkpt>
      <trkpt lat="45.32327" lon="6.50593">
        <ele>2410.472</ele>
        <time>2009-12-14T10:33:21Z</time>
      </trkpt>
      <trkpt lat="45.32323" lon="6.50581">
        <ele>2412.153</ele>
        <time>2009-12-14T10:33:38Z</time>
      </trkpt>
      <trkpt lat="45.32314" lon="6.5058">
        <ele>2413.841</ele>
        <time>2009-12-14T10:33:53Z</time>
      </trkpt>
      <trkpt lat="45.32305" lon="6.50583">
        <ele>2415.772</ele>
        <time>2009-12-14T10:34:08Z</time>
      </trkpt>
      <trkpt lat="45.32297" lon="6.50582">
        <ele>2418.319</ele>
        <time>2009-12-14T10:34:24Z</time>
      </trkpt>
      <trkpt lat="45.32287" lon="6.5058">
        <ele>2419.092</ele>
        <time>2009-12-14T10:34:38Z</time>
      </trkpt>
      <trkpt lat="45.32278" lon="6.50577">
        <ele>2421.173</ele>
        <time>2009-12-14T10:34:52Z</time>
      </trkpt>
      <trkpt lat="45.32269" lon="6.50575">
        <ele>2422.134</ele>
        <time>2009-12-14T10:35:05Z</time>
      </trkpt>
      <trkpt lat="45.3226" lon="6.50572">
        <ele>2424.848</ele>
        <time>2009-12-14T10:35:17Z</time>
      </trkpt>
      <trkpt lat="45.32251" lon="6.50572">
        <ele>2427.526</ele>
        <time>2009-12-14T10:35:29Z</time>
      </trkpt>
      <trkpt lat="45.32241" lon="6.50571">
        <ele>2428.716</ele>
        <time>2009-12-14T10:35:39Z</time>
      </trkpt>
      <trkpt lat="45.32232" lon="6.50568">
        <ele>2428.367</ele>
        <time>2009-12-14T10:35:50Z</time>
      </trkpt>
      <trkpt lat="45.32222" lon="6.50564">
        <ele>2428.015</ele>
        <time>2009-12-14T10:35:59Z</time>
      </trkpt>
      <trkpt lat="45.32213" lon="6.50562">
        <ele>2428.054</ele>
        <time>2009-12-14T10:36:08Z</time>
      </trkpt>
      <trkpt lat="45.32204" lon="6.50558">
        <ele>2426.023</ele>
        <time>2009-12-14T10:36:19Z</time>
      </trkpt>
      <trkpt lat="45.32194" lon="6.50554">
        <ele>2425.324</ele>
        <time>2009-12-14T10:36:33Z</time>
      </trkpt>
      <trkpt lat="45.32185" lon="6.50551">
        <ele>2426.84</ele>
        <time>2009-12-14T10:36:46Z</time>
      </trkpt>
      <trkpt lat="45.32176" lon="6.5055">
        <ele>2431.304</ele>
        <time>2009-12-14T10:37:02Z</time>
      </trkpt>
      <trkpt lat="45.32168" lon="6.50546">
        <ele>2434.26</ele>
        <time>2009-12-14T10:37:16Z</time>
      </trkpt>
      <trkpt lat="45.3216" lon="6.5054">
        <ele>2436.508</ele>
        <time>2009-12-14T10:37:28Z</time>
      </trkpt>
      <trkpt lat="45.32152" lon="6.50533">
        <ele>2437.245</ele>
        <time>2009-12-14T10:37:41Z</time>
      </trkpt>
      <trkpt lat="45.32144" lon="6.50525">
        <ele>2436.049</ele>
        <time>2009-12-14T10:38:00Z</time>
      </trkpt>
      <trkpt lat="45.32136" lon="6.50518">
        <ele>2436.773</ele>
        <time>2009-12-14T10:38:13Z</time>
      </trkpt>
      <trkpt lat="45.32127" lon="6.50512">
        <ele>2437.507</ele>
        <time>2009-12-14T10:38:29Z</time>
      </trkpt>
      <trkpt lat="45.32118" lon="6.50508">
        <ele>2437.641</ele>
        <time>2009-12-14T10:38:44Z</time>
      </trkpt>
      <trkpt lat="45.3211" lon="6.50501">
        <ele>2438.018</ele>
        <time>2009-12-14T10:39:02Z</time>
      </trkpt>
      <trkpt lat="45.32101" lon="6.50497">
        <ele>2439.269</ele>
        <time>2009-12-14T10:39:17Z</time>
      </trkpt>
      <trkpt lat="45.32092" lon="6.50493">
        <ele>2439.929</ele>
        <time>2009-12-14T10:39:30Z</time>
      </trkpt>
      <trkpt lat="45.32084" lon="6.50487">
        <ele>2442.647</ele>
        <time>2009-12-14T10:39:45Z</time>
      </trkpt>
      <trkpt lat="45.32076" lon="6.50483">
        <ele>2446.582</ele>
        <time>2009-12-14T10:39:59Z</time>
      </trkpt>
      <trkpt lat="45.32067" lon="6.50478">
        <ele>2447.81</ele>
        <time>2009-12-14T10:40:14Z</time>
      </trkpt>
      <trkpt lat="45.32059" lon="6.50473">
        <ele>2450.671</ele>
        <time>2009-12-14T10:40:27Z</time>
      </trkpt>
      <trkpt lat="45.32052" lon="6.50466">
        <ele>2453.425</ele>
        <time>2009-12-14T10:40:46Z</time>
      </trkpt>
      <trkpt lat="45.32043" lon="6.50461">
        <ele>2455.209</ele>
        <time>2009-12-14T10:40:59Z</time>
      </trkpt>
      <trkpt lat="45.32034" lon="6.50456">
        <ele>2457.854</ele>
        <time>2009-12-14T10:41:10Z</time>
      </trkpt>
      <trkpt lat="45.32026" lon="6.5045">
        <ele>2459.505</ele>
        <time>2009-12-14T10:41:36Z</time>
      </trkpt>
      <trkpt lat="45.32018" lon="6.50443">
        <ele>2459.611</ele>
        <time>2009-12-14T10:41:57Z</time>
      </trkpt>
      <trkpt lat="45.32009" lon="6.50438">
        <ele>2460.455</ele>
        <time>2009-12-14T10:42:19Z</time>
      </trkpt>
      <trkpt lat="45.32001" lon="6.50432">
        <ele>2463.164</ele>
        <time>2009-12-14T10:42:38Z</time>
      </trkpt>
      <trkpt lat="45.31993" lon="6.50427">
        <ele>2464.747</ele>
        <time>2009-12-14T10:42:57Z</time>
      </trkpt>
      <trkpt lat="45.31985" lon="6.50421">
        <ele>2466.595</ele>
        <time>2009-12-14T10:43:18Z</time>
      </trkpt>
      <trkpt lat="45.31976" lon="6.50417">
        <ele>2468.557</ele>
        <time>2009-12-14T10:43:38Z</time>
      </trkpt>
      <trkpt lat="45.31966" lon="6.50415">
        <ele>2470.288</ele>
        <time>2009-12-14T10:44:00Z</time>
      </trkpt>
      <trkpt lat="45.31959" lon="6.50408">
        <ele>2474.392</ele>
        <time>2009-12-14T10:44:22Z</time>
      </trkpt>
      <trkpt lat="45.31959" lon="6.50396">
        <ele>2479.149</ele>
        <time>2009-12-14T10:44:35Z</time>
      </trkpt>
      <trkpt lat="45.31959" lon="6.50383">
        <ele>2483.147</ele>
        <time>2009-12-14T10:44:52Z</time>
      </trkpt>
      <trkpt lat="45.31961" lon="6.50371">
        <ele>2487.003</ele>
        <time>2009-12-14T10:45:09Z</time>
      </trkpt>
      <trkpt lat="45.31963" lon="6.50358">
        <ele>2489.711</ele>
        <time>2009-12-14T10:45:21Z</time>
      </trkpt>
      <trkpt lat="45.31965" lon="6.50345">
        <ele>2490.644</ele>
        <time>2009-12-14T10:45:47Z</time>
      </trkpt>
      <trkpt lat="45.31966" lon="6.50333">
        <ele>2489.321</ele>
        <time>2009-12-14T10:45:55Z</time>
      </trkpt>
      <trkpt lat="45.31966" lon="6.5032">
        <ele>2491.789</ele>
        <time>2009-12-14T10:46:16Z</time>
      </trkpt>
      <trkpt lat="45.31968" lon="6.50308">
        <ele>2493.434</ele>
        <time>2009-12-14T10:46:34Z</time>
      </trkpt>
      <trkpt lat="45.31967" lon="6.50295">
        <ele>2493.74</ele>
        <time>2009-12-14T10:46:50Z</time>
      </trkpt>
      <trkpt lat="45.3197" lon="6.50283">
        <ele>2496.022</ele>
        <time>2009-12-14T10:47:10Z</time>
      </trkpt>
      <trkpt lat="45.3197" lon="6.50269">
        <ele>2497.626</ele>
        <time>2009-12-14T10:47:32Z</time>
      </trkpt>
      <trkpt lat="45.31972" lon="6.50257">
        <ele>2501.186</ele>
        <time>2009-12-14T10:47:53Z</time>
      </trkpt>
      <trkpt lat="45.31972" lon="6.50244">
        <ele>2503.704</ele>
        <time>2009-12-14T10:48:13Z</time>
      </trkpt>
      <trkpt lat="45.3197" lon="6.50232">
        <ele>2506.781</ele>
        <time>2009-12-14T10:48:34Z</time>
      </trkpt>
      <trkpt lat="45.31971" lon="6.50219">
        <ele>2510.249</ele>
        <time>2009-12-14T10:48:55Z</time>
      </trkpt>
      <trkpt lat="45.31969" lon="6.50207">
        <ele>2511.613</ele>
        <time>2009-12-14T10:49:11Z</time>
      </trkpt>
      <trkpt lat="45.31968" lon="6.50193">
        <ele>2512.413</ele>
        <time>2009-12-14T10:49:31Z</time>
      </trkpt>
      <trkpt lat="45.31965" lon="6.50181">
        <ele>2514.009</ele>
        <time>2009-12-14T10:49:55Z</time>
      </trkpt>
      <trkpt lat="45.31962" lon="6.50169">
        <ele>2516.884</ele>
        <time>2009-12-14T10:50:13Z</time>
      </trkpt>
      <trkpt lat="45.3196" lon="6.50156">
        <ele>2520.59</ele>
        <time>2009-12-14T10:50:39Z</time>
      </trkpt>
      <trkpt lat="45.31966" lon="6.50149">
        <ele>2525.04</ele>
        <time>2009-12-14T10:51:35Z</time>
      </trkpt>
      <trkpt lat="45.31969" lon="6.50136">
        <ele>2526.122</ele>
        <time>2009-12-14T10:51:57Z</time>
      </trkpt>
      <trkpt lat="45.31969" lon="6.50124">
        <ele>2529.54</ele>
        <time>2009-12-14T10:52:19Z</time>
      </trkpt>
      <trkpt lat="45.31965" lon="6.50112">
        <ele>2531.073</ele>
        <time>2009-12-14T10:52:43Z</time>
      </trkpt>
      <trkpt lat="45.31972" lon="6.50104">
        <ele>2534.555</ele>
        <time>2009-12-14T10:53:23Z</time>
      </trkpt>
      <trkpt lat="45.3198" lon="6.50106">
        <ele>2540.623</ele>
        <time>2009-12-14T10:53:51Z</time>
      </trkpt>
      <trkpt lat="45.31989" lon="6.50111">
        <ele>2543.109</ele>
        <time>2009-12-14T10:54:09Z</time>
      </trkpt>
      <trkpt lat="45.31997" lon="6.50114">
        <ele>2548.173</ele>
        <time>2009-12-14T10:54:36Z</time>
      </trkpt>
      <trkpt lat="45.32006" lon="6.50117">
        <ele>2550.036</ele>
        <time>2009-12-14T10:54:57Z</time>
      </trkpt>
      <trkpt lat="45.32015" lon="6.50118">
        <ele>2549.686</ele>
        <time>2009-12-14T10:55:13Z</time>
      </trkpt>
      <trkpt lat="45.32024" lon="6.50117">
        <ele>2547.561</ele>
        <time>2009-12-14T10:55:38Z</time>
      </trkpt>
      <trkpt lat="45.32033" lon="6.50114">
        <ele>2548.403</ele>
        <time>2009-12-14T10:56:00Z</time>
      </trkpt>
      <trkpt lat="45.32041" lon="6.50113">
        <ele>2550.716</ele>
        <time>2009-12-14T10:56:24Z</time>
      </trkpt>
      <trkpt lat="45.3205" lon="6.50112">
        <ele>2554.468</ele>
        <time>2009-12-14T10:56:42Z</time>
      </trkpt>
      <trkpt lat="45.32059" lon="6.50114">
        <ele>2553.315</ele>
        <time>2009-12-14T10:57:07Z</time>
      </trkpt>
      <trkpt lat="45.32068" lon="6.50114">
        <ele>2555.927</ele>
        <time>2009-12-14T10:57:29Z</time>
      </trkpt>
      <trkpt lat="45.32074" lon="6.50117">
        <ele>2563.44</ele>
        <time>2009-12-14T10:57:42Z</time>
      </trkpt>
      <trkpt lat="45.32078" lon="6.50105">
        <ele>2567.712</ele>
        <time>2009-12-14T10:58:32Z</time>
      </trkpt>
      <trkpt lat="45.3208" lon="6.50092">
        <ele>2568.497</ele>
        <time>2009-12-14T10:58:40Z</time>
      </trkpt>
      <trkpt lat="45.32074" lon="6.50083">
        <ele>2572.628</ele>
        <time>2009-12-14T10:58:57Z</time>
      </trkpt>
      <trkpt lat="45.32068" lon="6.50073">
        <ele>2574.472</ele>
        <time>2009-12-14T10:59:13Z</time>
      </trkpt>
      <trkpt lat="45.32064" lon="6.50063">
        <ele>2579.27</ele>
        <time>2009-12-14T10:59:41Z</time>
      </trkpt>
      <trkpt lat="45.32059" lon="6.50053">
        <ele>2582.081</ele>
        <time>2009-12-14T11:02:41Z</time>
      </trkpt>
      <trkpt lat="45.32049" lon="6.50048">
        <ele>2583.332</ele>
        <time>2009-12-14T11:04:16Z</time>
      </trkpt>
      <trkpt lat="45.32043" lon="6.50038">
        <ele>2584.631</ele>
        <time>2009-12-14T11:04:25Z</time>
      </trkpt>
      <trkpt lat="45.32036" lon="6.5003">
        <ele>2585.407</ele>
        <time>2009-12-14T11:04:36Z</time>
      </trkpt>
      <trkpt lat="45.32029" lon="6.5002">
        <ele>2585.892</ele>
        <time>2009-12-14T11:04:50Z</time>
      </trkpt>
      <trkpt lat="45.3202" lon="6.50015">
        <ele>2586.883</ele>
        <time>2009-12-14T11:05:00Z</time>
      </trkpt>
      <trkpt lat="45.32011" lon="6.5001">
        <ele>2587.474</ele>
        <time>2009-12-14T11:05:09Z</time>
      </trkpt>
      <trkpt lat="45.32002" lon="6.50004">
        <ele>2587.451</ele>
        <time>2009-12-14T11:05:19Z</time>
      </trkpt>
      <trkpt lat="45.31993" lon="6.49998">
        <ele>2587.05</ele>
        <time>2009-12-14T11:05:26Z</time>
      </trkpt>
      <trkpt lat="45.31984" lon="6.49992">
        <ele>2585.677</ele>
        <time>2009-12-14T11:05:33Z</time>
      </trkpt>
      <trkpt lat="45.31976" lon="6.49987">
        <ele>2584.765</ele>
        <time>2009-12-14T11:05:43Z</time>
      </trkpt>
      <trkpt lat="45.31969" lon="6.49977">
        <ele>2584.27</ele>
        <time>2009-12-14T11:05:54Z</time>
      </trkpt>
      <trkpt lat="45.31962" lon="6.49968">
        <ele>2584.174</ele>
        <time>2009-12-14T11:06:04Z</time>
      </trkpt>
      <trkpt lat="45.31956" lon="6.49959">
        <ele>2585.553</ele>
        <time>2009-12-14T11:06:16Z</time>
      </trkpt>
      <trkpt lat="45.3195" lon="6.49949">
        <ele>2587.584</ele>
        <time>2009-12-14T11:06:26Z</time>
      </trkpt>
      <trkpt lat="45.31944" lon="6.4994">
        <ele>2587.341</ele>
        <time>2009-12-14T11:06:38Z</time>
      </trkpt>
      <trkpt lat="45.31938" lon="6.4993">
        <ele>2589.372</ele>
        <time>2009-12-14T11:06:50Z</time>
      </trkpt>
      <trkpt lat="45.31933" lon="6.49919">
        <ele>2591.178</ele>
        <time>2009-12-14T11:07:06Z</time>
      </trkpt>
      <trkpt lat="45.31929" lon="6.49907">
        <ele>2590.609</ele>
        <time>2009-12-14T11:07:25Z</time>
      </trkpt>
      <trkpt lat="45.31928" lon="6.49894">
        <ele>2590.597</ele>
        <time>2009-12-14T11:07:41Z</time>
      </trkpt>
      <trkpt lat="45.31923" lon="6.49883">
        <ele>2592.03</ele>
        <time>2009-12-14T11:08:00Z</time>
      </trkpt>
      <trkpt lat="45.31917" lon="6.49874">
        <ele>2595.968</ele>
        <time>2009-12-14T11:08:18Z</time>
      </trkpt>
      <trkpt lat="45.31908" lon="6.49875">
        <ele>2599.022</ele>
        <time>2009-12-14T11:08:43Z</time>
      </trkpt>
      <trkpt lat="45.31899" lon="6.49876">
        <ele>2601.677</ele>
        <time>2009-12-14T11:09:05Z</time>
      </trkpt>
      <trkpt lat="45.3189" lon="6.49877">
        <ele>2606.003</ele>
        <time>2009-12-14T11:09:30Z</time>
      </trkpt>
      <trkpt lat="45.31884" lon="6.4987">
        <ele>2609.26</ele>
        <time>2009-12-14T11:09:54Z</time>
      </trkpt>
      <trkpt lat="45.3188" lon="6.49858">
        <ele>2608.088</ele>
        <time>2009-12-14T11:10:16Z</time>
      </trkpt>
      <trkpt lat="45.31875" lon="6.49851">
        <ele>2613.826</ele>
        <time>2009-12-14T11:10:36Z</time>
      </trkpt>
      <trkpt lat="45.31867" lon="6.49845">
        <ele>2616.981</ele>
        <time>2009-12-14T11:10:55Z</time>
      </trkpt>
      <trkpt lat="45.31859" lon="6.4984">
        <ele>2621.321</ele>
        <time>2009-12-14T11:11:16Z</time>
      </trkpt>
      <trkpt lat="45.31851" lon="6.49835">
        <ele>2622.724</ele>
        <time>2009-12-14T11:11:29Z</time>
      </trkpt>
      <trkpt lat="45.31842" lon="6.49832">
        <ele>2624.154</ele>
        <time>2009-12-14T11:11:51Z</time>
      </trkpt>
      <trkpt lat="45.31834" lon="6.49825">
        <ele>2627.148</ele>
        <time>2009-12-14T11:12:10Z</time>
      </trkpt>
      <trkpt lat="45.31826" lon="6.4982">
        <ele>2630.063</ele>
        <time>2009-12-14T11:12:32Z</time>
      </trkpt>
      <trkpt lat="45.31819" lon="6.49812">
        <ele>2630.726</ele>
        <time>2009-12-14T11:12:51Z</time>
      </trkpt>
      <trkpt lat="45.31814" lon="6.49802">
        <ele>2633.474</ele>
        <time>2009-12-14T11:13:11Z</time>
      </trkpt>
      <trkpt lat="45.31809" lon="6.49792">
        <ele>2636.046</ele>
        <time>2009-12-14T11:13:30Z</time>
      </trkpt>
      <trkpt lat="45.31803" lon="6.49782">
        <ele>2638.211</ele>
        <time>2009-12-14T11:13:52Z</time>
      </trkpt>
      <trkpt lat="45.31797" lon="6.49772">
        <ele>2641.472</ele>
        <time>2009-12-14T11:14:07Z</time>
      </trkpt>
      <trkpt lat="45.31793" lon="6.4976">
        <ele>2643.445</ele>
        <time>2009-12-14T11:14:32Z</time>
      </trkpt>
      <trkpt lat="45.31792" lon="6.49747">
        <ele>2643.152</ele>
        <time>2009-12-14T11:14:51Z</time>
      </trkpt>
      <trkpt lat="45.31787" lon="6.49735">
        <ele>2644.12</ele>
        <time>2009-12-14T11:15:18Z</time>
      </trkpt>
      <trkpt lat="45.31783" lon="6.49731">
        <ele>2652.072</ele>
        <time>2009-12-14T11:15:45Z</time>
      </trkpt>
      <trkpt lat="45.31775" lon="6.49738">
        <ele>2654.857</ele>
        <time>2009-12-14T11:16:03Z</time>
      </trkpt>
      <trkpt lat="45.31767" lon="6.49743">
        <ele>2657.661</ele>
        <time>2009-12-14T11:16:23Z</time>
      </trkpt>
      <trkpt lat="45.31759" lon="6.49746">
        <ele>2661.411</ele>
        <time>2009-12-14T11:16:45Z</time>
      </trkpt>
      <trkpt lat="45.3175" lon="6.49751">
        <ele>2663.569</ele>
        <time>2009-12-14T11:17:03Z</time>
      </trkpt>
      <trkpt lat="45.31742" lon="6.49752">
        <ele>2667.107</ele>
        <time>2009-12-14T11:17:27Z</time>
      </trkpt>
      <trkpt lat="45.31735" lon="6.49744">
        <ele>2668.967</ele>
        <time>2009-12-14T11:17:45Z</time>
      </trkpt>
      <trkpt lat="45.31734" lon="6.49731">
        <ele>2666.699</ele>
        <time>2009-12-14T11:18:09Z</time>
      </trkpt>
      <trkpt lat="45.31735" lon="6.49717">
        <ele>2668.08</ele>
        <time>2009-12-14T11:18:31Z</time>
      </trkpt>
      <trkpt lat="45.31738" lon="6.49705">
        <ele>2670.656</ele>
        <time>2009-12-14T11:18:46Z</time>
      </trkpt>
      <trkpt lat="45.31737" lon="6.49694">
        <ele>2675.948</ele>
        <time>2009-12-14T11:19:03Z</time>
      </trkpt>
      <trkpt lat="45.3173" lon="6.49696">
        <ele>2681.654</ele>
        <time>2009-12-14T11:19:52Z</time>
      </trkpt>
      <trkpt lat="45.31721" lon="6.49694">
        <ele>2680.611</ele>
        <time>2009-12-14T11:20:44Z</time>
      </trkpt>
      <trkpt lat="45.31724" lon="6.49707">
        <ele>2680.512</ele>
        <time>2009-12-14T12:12:09Z</time>
      </trkpt>
      <trkpt lat="45.31728" lon="6.49719">
        <ele>2679.126</ele>
        <time>2009-12-14T12:12:43Z</time>
      </trkpt>
      <trkpt lat="45.31729" lon="6.49732">
        <ele>2677.527</ele>
        <time>2009-12-14T12:12:58Z</time>
      </trkpt>
      <trkpt lat="45.31737" lon="6.4974">
        <ele>2677.135</ele>
        <time>2009-12-14T12:13:05Z</time>
      </trkpt>
      <trkpt lat="45.31744" lon="6.49747">
        <ele>2676.428</ele>
        <time>2009-12-14T12:13:11Z</time>
      </trkpt>
      <trkpt lat="45.31745" lon="6.4976">
        <ele>2673.31</ele>
        <time>2009-12-14T12:13:22Z</time>
      </trkpt>
      <trkpt lat="45.31754" lon="6.49758">
        <ele>2670.325</ele>
        <time>2009-12-14T12:13:28Z</time>
      </trkpt>
      <trkpt lat="45.31761" lon="6.49764">
        <ele>2665.652</ele>
        <time>2009-12-14T12:13:35Z</time>
      </trkpt>
      <trkpt lat="45.31759" lon="6.4978">
        <ele>2662.529</ele>
        <time>2009-12-14T12:13:40Z</time>
      </trkpt>
      <trkpt lat="45.31768" lon="6.49784">
        <ele>2659.49</ele>
        <time>2009-12-14T12:13:44Z</time>
      </trkpt>
      <trkpt lat="45.31779" lon="6.49781">
        <ele>2655.262</ele>
        <time>2009-12-14T12:13:48Z</time>
      </trkpt>
      <trkpt lat="45.3178" lon="6.49794">
        <ele>2651.229</ele>
        <time>2009-12-14T12:13:50Z</time>
      </trkpt>
      <trkpt lat="45.31774" lon="6.49806">
        <ele>2648.774</ele>
        <time>2009-12-14T12:13:53Z</time>
      </trkpt>
      <trkpt lat="45.3178" lon="6.49818">
        <ele>2646.224</ele>
        <time>2009-12-14T12:13:58Z</time>
      </trkpt>
      <trkpt lat="45.31789" lon="6.49822">
        <ele>2644.14</ele>
        <time>2009-12-14T12:14:02Z</time>
      </trkpt>
      <trkpt lat="45.31782" lon="6.49831">
        <ele>2641.056</ele>
        <time>2009-12-14T12:14:07Z</time>
      </trkpt>
      <trkpt lat="45.31792" lon="6.49838">
        <ele>2638.012</ele>
        <time>2009-12-14T12:14:12Z</time>
      </trkpt>
      <trkpt lat="45.318" lon="6.49844">
        <ele>2634.592</ele>
        <time>2009-12-14T12:14:14Z</time>
      </trkpt>
      <trkpt lat="45.3181" lon="6.49855">
        <ele>2630.726</ele>
        <time>2009-12-14T12:14:16Z</time>
      </trkpt>
      <trkpt lat="45.31821" lon="6.49865">
        <ele>2627.284</ele>
        <time>2009-12-14T12:14:18Z</time>
      </trkpt>
      <trkpt lat="45.31832" lon="6.49869">
        <ele>2624.91</ele>
        <time>2009-12-14T12:14:20Z</time>
      </trkpt>
      <trkpt lat="45.31842" lon="6.49871">
        <ele>2622.494</ele>
        <time>2009-12-14T12:14:22Z</time>
      </trkpt>
      <trkpt lat="45.31851" lon="6.49873">
        <ele>2619.724</ele>
        <time>2009-12-14T12:14:24Z</time>
      </trkpt>
      <trkpt lat="45.31861" lon="6.49879">
        <ele>2617.898</ele>
        <time>2009-12-14T12:14:26Z</time>
      </trkpt>
      <trkpt lat="45.31866" lon="6.49892">
        <ele>2613.294</ele>
        <time>2009-12-14T12:16:41Z</time>
      </trkpt>
      <trkpt lat="45.31875" lon="6.49905">
        <ele>2609.117</ele>
        <time>2009-12-14T12:16:44Z</time>
      </trkpt>
      <trkpt lat="45.3188" lon="6.49917">
        <ele>2606.806</ele>
        <time>2009-12-14T12:16:46Z</time>
      </trkpt>
      <trkpt lat="45.31889" lon="6.49927">
        <ele>2605.082</ele>
        <time>2009-12-14T12:16:48Z</time>
      </trkpt>
      <trkpt lat="45.31898" lon="6.49935">
        <ele>2601.958</ele>
        <time>2009-12-14T12:16:50Z</time>
      </trkpt>
      <trkpt lat="45.31905" lon="6.49945">
        <ele>2601.684</ele>
        <time>2009-12-14T12:16:52Z</time>
      </trkpt>
      <trkpt lat="45.31915" lon="6.49954">
        <ele>2598.532</ele>
        <time>2009-12-14T12:16:55Z</time>
      </trkpt>
      <trkpt lat="45.3192" lon="6.49968">
        <ele>2594.205</ele>
        <time>2009-12-14T12:16:59Z</time>
      </trkpt>
      <trkpt lat="45.31927" lon="6.49977">
        <ele>2591.657</ele>
        <time>2009-12-14T12:17:03Z</time>
      </trkpt>
      <trkpt lat="45.31926" lon="6.49989">
        <ele>2588.764</ele>
        <time>2009-12-14T12:17:06Z</time>
      </trkpt>
      <trkpt lat="45.31934" lon="6.49997">
        <ele>2585.252</ele>
        <time>2009-12-14T12:17:10Z</time>
      </trkpt>
      <trkpt lat="45.31943" lon="6.50005">
        <ele>2581.74</ele>
        <time>2009-12-14T12:17:14Z</time>
      </trkpt>
      <trkpt lat="45.31949" lon="6.50011">
        <ele>2577.99</ele>
        <time>2009-12-14T12:17:17Z</time>
      </trkpt>
      <trkpt lat="45.31949" lon="6.50026">
        <ele>2573.847</ele>
        <time>2009-12-14T12:17:22Z</time>
      </trkpt>
      <trkpt lat="45.31947" lon="6.5004">
        <ele>2571.095</ele>
        <time>2009-12-14T12:17:27Z</time>
      </trkpt>
      <trkpt lat="45.31941" lon="6.50048">
        <ele>2565.025</ele>
        <time>2009-12-14T12:17:31Z</time>
      </trkpt>
      <trkpt lat="45.31945" lon="6.50058">
        <ele>2558.572</ele>
        <time>2009-12-14T12:19:14Z</time>
      </trkpt>
      <trkpt lat="45.31943" lon="6.50071">
        <ele>2552.561</ele>
        <time>2009-12-14T12:19:17Z</time>
      </trkpt>
      <trkpt lat="45.31942" lon="6.50082">
        <ele>2545.965</ele>
        <time>2009-12-14T12:19:20Z</time>
      </trkpt>
      <trkpt lat="45.31943" lon="6.50096">
        <ele>2540.097</ele>
        <time>2009-12-14T12:19:23Z</time>
      </trkpt>
      <trkpt lat="45.31946" lon="6.50109">
        <ele>2536.888</ele>
        <time>2009-12-14T12:19:25Z</time>
      </trkpt>
      <trkpt lat="45.31948" lon="6.50121">
        <ele>2533.951</ele>
        <time>2009-12-14T12:19:27Z</time>
      </trkpt>
      <trkpt lat="45.31951" lon="6.50135">
        <ele>2530.87</ele>
        <time>2009-12-14T12:19:30Z</time>
      </trkpt>
      <trkpt lat="45.31957" lon="6.50148">
        <ele>2529.086</ele>
        <time>2009-12-14T12:20:40Z</time>
      </trkpt>
      <trkpt lat="45.31963" lon="6.50163">
        <ele>2526.267</ele>
        <time>2009-12-14T12:20:43Z</time>
      </trkpt>
      <trkpt lat="45.31968" lon="6.50177">
        <ele>2523.686</ele>
        <time>2009-12-14T12:20:46Z</time>
      </trkpt>
      <trkpt lat="45.31971" lon="6.5019">
        <ele>2520.461</ele>
        <time>2009-12-14T12:20:48Z</time>
      </trkpt>
      <trkpt lat="45.31974" lon="6.50204">
        <ele>2517.32</ele>
        <time>2009-12-14T12:20:50Z</time>
      </trkpt>
      <trkpt lat="45.31975" lon="6.50219">
        <ele>2514.664</ele>
        <time>2009-12-14T12:20:52Z</time>
      </trkpt>
      <trkpt lat="45.31976" lon="6.50236">
        <ele>2510.986</ele>
        <time>2009-12-14T12:20:55Z</time>
      </trkpt>
      <trkpt lat="45.31977" lon="6.50253">
        <ele>2507.243</ele>
        <time>2009-12-14T12:20:58Z</time>
      </trkpt>
      <trkpt lat="45.31976" lon="6.5027">
        <ele>2503.688</ele>
        <time>2009-12-14T12:21:01Z</time>
      </trkpt>
      <trkpt lat="45.31976" lon="6.50285">
        <ele>2500.577</ele>
        <time>2009-12-14T12:21:04Z</time>
      </trkpt>
      <trkpt lat="45.31975" lon="6.50302">
        <ele>2498.498</ele>
        <time>2009-12-14T12:21:07Z</time>
      </trkpt>
      <trkpt lat="45.31974" lon="6.50319">
        <ele>2496.24</ele>
        <time>2009-12-14T12:21:10Z</time>
      </trkpt>
      <trkpt lat="45.31973" lon="6.50338">
        <ele>2492.738</ele>
        <time>2009-12-14T12:21:13Z</time>
      </trkpt>
      <trkpt lat="45.31973" lon="6.50355">
        <ele>2488.641</ele>
        <time>2009-12-14T12:21:16Z</time>
      </trkpt>
      <trkpt lat="45.31968" lon="6.50371">
        <ele>2485.527</ele>
        <time>2009-12-14T12:21:19Z</time>
      </trkpt>
      <trkpt lat="45.31961" lon="6.5038">
        <ele>2483.517</ele>
        <time>2009-12-14T12:21:22Z</time>
      </trkpt>
      <trkpt lat="45.31959" lon="6.50392">
        <ele>2481.007</ele>
        <time>2009-12-14T12:25:00Z</time>
      </trkpt>
      <trkpt lat="45.31961" lon="6.50407">
        <ele>2478.758</ele>
        <time>2009-12-14T12:25:03Z</time>
      </trkpt>
      <trkpt lat="45.3197" lon="6.50414">
        <ele>2477.056</ele>
        <time>2009-12-14T12:25:06Z</time>
      </trkpt>
      <trkpt lat="45.31979" lon="6.50419">
        <ele>2473.11</ele>
        <time>2009-12-14T12:25:08Z</time>
      </trkpt>
      <trkpt lat="45.31992" lon="6.50428">
        <ele>2470.12</ele>
        <time>2009-12-14T12:25:10Z</time>
      </trkpt>
      <trkpt lat="45.32005" lon="6.50437">
        <ele>2466.395</ele>
        <time>2009-12-14T12:25:12Z</time>
      </trkpt>
      <trkpt lat="45.32018" lon="6.50447">
        <ele>2462.656</ele>
        <time>2009-12-14T12:25:14Z</time>
      </trkpt>
      <trkpt lat="45.32032" lon="6.50455">
        <ele>2459.795</ele>
        <time>2009-12-14T12:25:16Z</time>
      </trkpt>
      <trkpt lat="45.32045" lon="6.50463">
        <ele>2458.34</ele>
        <time>2009-12-14T12:25:18Z</time>
      </trkpt>
      <trkpt lat="45.32056" lon="6.50471">
        <ele>2457.501</ele>
        <time>2009-12-14T12:25:20Z</time>
      </trkpt>
      <trkpt lat="45.32068" lon="6.5048">
        <ele>2454.478</ele>
        <time>2009-12-14T12:25:22Z</time>
      </trkpt>
      <trkpt lat="45.32083" lon="6.50489">
        <ele>2450.694</ele>
        <time>2009-12-14T12:25:24Z</time>
      </trkpt>
      <trkpt lat="45.32096" lon="6.50497">
        <ele>2447.502</ele>
        <time>2009-12-14T12:25:26Z</time>
      </trkpt>
      <trkpt lat="45.3211" lon="6.50506">
        <ele>2445.868</ele>
        <time>2009-12-14T12:25:28Z</time>
      </trkpt>
      <trkpt lat="45.32124" lon="6.50515">
        <ele>2443.387</ele>
        <time>2009-12-14T12:25:30Z</time>
      </trkpt>
      <trkpt lat="45.3214" lon="6.50528">
        <ele>2441.621</ele>
        <time>2009-12-14T12:25:32Z</time>
      </trkpt>
      <trkpt lat="45.32148" lon="6.50535">
        <ele>2440.297</ele>
        <time>2009-12-14T12:25:33Z</time>
      </trkpt>
      <trkpt lat="45.32156" lon="6.50541">
        <ele>2438.615</ele>
        <time>2009-12-14T12:25:34Z</time>
      </trkpt>
      <trkpt lat="45.32172" lon="6.50553">
        <ele>2436.372</ele>
        <time>2009-12-14T12:25:36Z</time>
      </trkpt>
      <trkpt lat="45.32188" lon="6.50557">
        <ele>2433.695</ele>
        <time>2009-12-14T12:25:38Z</time>
      </trkpt>
      <trkpt lat="45.32202" lon="6.50561">
        <ele>2432.979</ele>
        <time>2009-12-14T12:25:40Z</time>
      </trkpt>
      <trkpt lat="45.32213" lon="6.50565">
        <ele>2431.645</ele>
        <time>2009-12-14T12:25:42Z</time>
      </trkpt>
      <trkpt lat="45.32224" lon="6.50569">
        <ele>2431.367</ele>
        <time>2009-12-14T12:25:45Z</time>
      </trkpt>
      <trkpt lat="45.32233" lon="6.5057">
        <ele>2432.303</ele>
        <time>2009-12-14T12:25:51Z</time>
      </trkpt>
      <trkpt lat="45.32242" lon="6.50573">
        <ele>2432.327</ele>
        <time>2009-12-14T12:25:59Z</time>
      </trkpt>
      <trkpt lat="45.32251" lon="6.50574">
        <ele>2430.751</ele>
        <time>2009-12-14T12:26:06Z</time>
      </trkpt>
      <trkpt lat="45.32262" lon="6.50575">
        <ele>2428.582</ele>
        <time>2009-12-14T12:26:12Z</time>
      </trkpt>
      <trkpt lat="45.3227" lon="6.50579">
        <ele>2428.178</ele>
        <time>2009-12-14T12:26:17Z</time>
      </trkpt>
      <trkpt lat="45.32281" lon="6.50582">
        <ele>2428.314</ele>
        <time>2009-12-14T12:26:21Z</time>
      </trkpt>
      <trkpt lat="45.32291" lon="6.50586">
        <ele>2427.38</ele>
        <time>2009-12-14T12:26:24Z</time>
      </trkpt>
      <trkpt lat="45.32299" lon="6.50594">
        <ele>2426.159</ele>
        <time>2009-12-14T12:26:27Z</time>
      </trkpt>
      <trkpt lat="45.32291" lon="6.50598">
        <ele>2423.413</ele>
        <time>2009-12-14T12:27:44Z</time>
      </trkpt>
      <trkpt lat="45.32282" lon="6.50603">
        <ele>2420.156</ele>
        <time>2009-12-14T12:27:48Z</time>
      </trkpt>
      <trkpt lat="45.32272" lon="6.50611">
        <ele>2416.933</ele>
        <time>2009-12-14T12:27:52Z</time>
      </trkpt>
      <trkpt lat="45.32266" lon="6.50619">
        <ele>2414.125</ele>
        <time>2009-12-14T12:27:55Z</time>
      </trkpt>
      <trkpt lat="45.32261" lon="6.50634">
        <ele>2410.404</ele>
        <time>2009-12-14T12:28:00Z</time>
      </trkpt>
      <trkpt lat="45.32268" lon="6.50638">
        <ele>2404.559</ele>
        <time>2009-12-14T12:28:04Z</time>
      </trkpt>
      <trkpt lat="45.3227" lon="6.5065">
        <ele>2399.047</ele>
        <time>2009-12-14T12:28:08Z</time>
      </trkpt>
      <trkpt lat="45.32273" lon="6.50663">
        <ele>2393.293</ele>
        <time>2009-12-14T12:28:12Z</time>
      </trkpt>
      <trkpt lat="45.32276" lon="6.50674">
        <ele>2387.387</ele>
        <time>2009-12-14T12:28:17Z</time>
      </trkpt>
      <trkpt lat="45.32288" lon="6.50679">
        <ele>2382.418</ele>
        <time>2009-12-14T12:28:21Z</time>
      </trkpt>
      <trkpt lat="45.32296" lon="6.50685">
        <ele>2381.102</ele>
        <time>2009-12-14T12:28:23Z</time>
      </trkpt>
      <trkpt lat="45.32295" lon="6.50698">
        <ele>2376.13</ele>
        <time>2009-12-14T12:29:35Z</time>
      </trkpt>
      <trkpt lat="45.32294" lon="6.5071">
        <ele>2373.336</ele>
        <time>2009-12-14T12:29:40Z</time>
      </trkpt>
      <trkpt lat="45.32297" lon="6.50724">
        <ele>2369.09</ele>
        <time>2009-12-14T12:29:44Z</time>
      </trkpt>
      <trkpt lat="45.32289" lon="6.5073">
        <ele>2365.94</ele>
        <time>2009-12-14T12:29:49Z</time>
      </trkpt>
      <trkpt lat="45.32284" lon="6.50742">
        <ele>2361.256</ele>
        <time>2009-12-14T12:29:53Z</time>
      </trkpt>
      <trkpt lat="45.32285" lon="6.50755">
        <ele>2357.348</ele>
        <time>2009-12-14T12:29:56Z</time>
      </trkpt>
      <trkpt lat="45.32288" lon="6.50767">
        <ele>2352.051</ele>
        <time>2009-12-14T12:30:00Z</time>
      </trkpt>
      <trkpt lat="45.32298" lon="6.50771">
        <ele>2349.68</ele>
        <time>2009-12-14T12:30:06Z</time>
      </trkpt>
      <trkpt lat="45.32306" lon="6.50777">
        <ele>2347.881</ele>
        <time>2009-12-14T12:30:10Z</time>
      </trkpt>
      <trkpt lat="45.32314" lon="6.50785">
        <ele>2346.469</ele>
        <time>2009-12-14T12:30:13Z</time>
      </trkpt>
      <trkpt lat="45.32318" lon="6.50797">
        <ele>2344.372</ele>
        <time>2009-12-14T12:30:16Z</time>
      </trkpt>
      <trkpt lat="45.3232" lon="6.50811">
        <ele>2341.809</ele>
        <time>2009-12-14T12:30:19Z</time>
      </trkpt>
      <trkpt lat="45.32319" lon="6.50828">
        <ele>2339.631</ele>
        <time>2009-12-14T12:30:22Z</time>
      </trkpt>
      <trkpt lat="45.32319" lon="6.50843">
        <ele>2337.356</ele>
        <time>2009-12-14T12:30:25Z</time>
      </trkpt>
      <trkpt lat="45.3232" lon="6.50858">
        <ele>2334.489</ele>
        <time>2009-12-14T12:30:28Z</time>
      </trkpt>
      <trkpt lat="45.32321" lon="6.50875">
        <ele>2332.794</ele>
        <time>2009-12-14T12:30:31Z</time>
      </trkpt>
      <trkpt lat="45.32321" lon="6.50892">
        <ele>2330.691</ele>
        <time>2009-12-14T12:30:34Z</time>
      </trkpt>
      <trkpt lat="45.32321" lon="6.50905">
        <ele>2328.514</ele>
        <time>2009-12-14T12:30:36Z</time>
      </trkpt>
      <trkpt lat="45.32322" lon="6.5092">
        <ele>2327.71</ele>
        <time>2009-12-14T12:30:38Z</time>
      </trkpt>
      <trkpt lat="45.32323" lon="6.50933">
        <ele>2326.901</ele>
        <time>2009-12-14T12:30:40Z</time>
      </trkpt>
      <trkpt lat="45.32323" lon="6.50947">
        <ele>2325.904</ele>
        <time>2009-12-14T12:30:43Z</time>
      </trkpt>
      <trkpt lat="45.32315" lon="6.50953">
        <ele>2322.537</ele>
        <time>2009-12-14T12:30:48Z</time>
      </trkpt>
      <trkpt lat="45.32308" lon="6.5096">
        <ele>2318.116</ele>
        <time>2009-12-14T12:30:54Z</time>
      </trkpt>
      <trkpt lat="45.323" lon="6.50954">
        <ele>2314.014</ele>
        <time>2009-12-14T12:31:43Z</time>
      </trkpt>
      <trkpt lat="45.32292" lon="6.50953">
        <ele>2309.453</ele>
        <time>2009-12-14T12:31:49Z</time>
      </trkpt>
      <trkpt lat="45.32284" lon="6.50961">
        <ele>2305.809</ele>
        <time>2009-12-14T12:31:53Z</time>
      </trkpt>
      <trkpt lat="45.32275" lon="6.50957">
        <ele>2301.632</ele>
        <time>2009-12-14T12:32:05Z</time>
      </trkpt>
      <trkpt lat="45.32267" lon="6.50953">
        <ele>2298.052</ele>
        <time>2009-12-14T12:32:13Z</time>
      </trkpt>
      <trkpt lat="45.32261" lon="6.50962">
        <ele>2298.981</ele>
        <time>2009-12-14T12:32:33Z</time>
      </trkpt>
      <trkpt lat="45.32252" lon="6.50973">
        <ele>2297.724</ele>
        <time>2009-12-14T12:32:38Z</time>
      </trkpt>
      <trkpt lat="45.32245" lon="6.50983">
        <ele>2295.053</ele>
        <time>2009-12-14T12:32:43Z</time>
      </trkpt>
      <trkpt lat="45.32238" lon="6.50994">
        <ele>2294.461</ele>
        <time>2009-12-14T12:32:47Z</time>
      </trkpt>
      <trkpt lat="45.32231" lon="6.51003">
        <ele>2290.832</ele>
        <time>2009-12-14T12:32:54Z</time>
      </trkpt>
      <trkpt lat="45.32237" lon="6.51016">
        <ele>2283.808</ele>
        <time>2009-12-14T12:32:58Z</time>
      </trkpt>
      <trkpt lat="45.32232" lon="6.51028">
        <ele>2281.444</ele>
        <time>2009-12-14T12:33:03Z</time>
      </trkpt>
      <trkpt lat="45.32224" lon="6.51035">
        <ele>2280.256</ele>
        <time>2009-12-14T12:33:08Z</time>
      </trkpt>
      <trkpt lat="45.32216" lon="6.51042">
        <ele>2281.39</ele>
        <time>2009-12-14T12:33:16Z</time>
      </trkpt>
      <trkpt lat="45.32208" lon="6.51048">
        <ele>2281.619</ele>
        <time>2009-12-14T12:33:22Z</time>
      </trkpt>
      <trkpt lat="45.32199" lon="6.51056">
        <ele>2278.317</ele>
        <time>2009-12-14T12:33:27Z</time>
      </trkpt>
      <trkpt lat="45.32191" lon="6.51064">
        <ele>2275.401</ele>
        <time>2009-12-14T12:33:30Z</time>
      </trkpt>
      <trkpt lat="45.3218" lon="6.51074">
        <ele>2273.349</ele>
        <time>2009-12-14T12:33:33Z</time>
      </trkpt>
      <trkpt lat="45.32173" lon="6.51083">
        <ele>2272.42</ele>
        <time>2009-12-14T12:33:35Z</time>
      </trkpt>
      <trkpt lat="45.32167" lon="6.51092">
        <ele>2272.003</ele>
        <time>2009-12-14T12:33:37Z</time>
      </trkpt>
      <trkpt lat="45.32159" lon="6.51101">
        <ele>2270.766</ele>
        <time>2009-12-14T12:33:40Z</time>
      </trkpt>
      <trkpt lat="45.32151" lon="6.51109">
        <ele>2266.45</ele>
        <time>2009-12-14T12:33:46Z</time>
      </trkpt>
      <trkpt lat="45.32144" lon="6.51117">
        <ele>2264.076</ele>
        <time>2009-12-14T12:33:50Z</time>
      </trkpt>
      <trkpt lat="45.32134" lon="6.51123">
        <ele>2262.541</ele>
        <time>2009-12-14T12:33:53Z</time>
      </trkpt>
      <trkpt lat="45.32125" lon="6.5113">
        <ele>2258.978</ele>
        <time>2009-12-14T12:33:59Z</time>
      </trkpt>
      <trkpt lat="45.32125" lon="6.51142">
        <ele>2255.249</ele>
        <time>2009-12-14T12:34:03Z</time>
      </trkpt>
      <trkpt lat="45.32126" lon="6.51153">
        <ele>2249.775</ele>
        <time>2009-12-14T12:34:07Z</time>
      </trkpt>
      <trkpt lat="45.32127" lon="6.51165">
        <ele>2243.631</ele>
        <time>2009-12-14T12:34:11Z</time>
      </trkpt>
      <trkpt lat="45.32127" lon="6.51178">
        <ele>2238.812</ele>
        <time>2009-12-14T12:34:15Z</time>
      </trkpt>
      <trkpt lat="45.32119" lon="6.51185">
        <ele>2236.271</ele>
        <time>2009-12-14T12:34:20Z</time>
      </trkpt>
      <trkpt lat="45.32114" lon="6.51195">
        <ele>2233.296</ele>
        <time>2009-12-14T12:35:16Z</time>
      </trkpt>
      <trkpt lat="45.32112" lon="6.51207">
        <ele>2227.824</ele>
        <time>2009-12-14T12:35:19Z</time>
      </trkpt>
      <trkpt lat="45.32109" lon="6.51219">
        <ele>2220.631</ele>
        <time>2009-12-14T12:35:23Z</time>
      </trkpt>
      <trkpt lat="45.32107" lon="6.51232">
        <ele>2213.942</ele>
        <time>2009-12-14T12:35:27Z</time>
      </trkpt>
      <trkpt lat="45.32099" lon="6.51237">
        <ele>2209.437</ele>
        <time>2009-12-14T12:36:29Z</time>
      </trkpt>
      <trkpt lat="45.32092" lon="6.51245">
        <ele>2207.25</ele>
        <time>2009-12-14T12:36:35Z</time>
      </trkpt>
      <trkpt lat="45.3209" lon="6.51257">
        <ele>2203.524</ele>
        <time>2009-12-14T12:36:49Z</time>
      </trkpt>
      <trkpt lat="45.32082" lon="6.51262">
        <ele>2200.026</ele>
        <time>2009-12-14T12:36:55Z</time>
      </trkpt>
      <trkpt lat="45.32073" lon="6.51261">
        <ele>2198.351</ele>
        <time>2009-12-14T12:36:58Z</time>
      </trkpt>
      <trkpt lat="45.32061" lon="6.5126">
        <ele>2195.466</ele>
        <time>2009-12-14T12:37:01Z</time>
      </trkpt>
      <trkpt lat="45.32052" lon="6.5126">
        <ele>2194.399</ele>
        <time>2009-12-14T12:37:03Z</time>
      </trkpt>
      <trkpt lat="45.32042" lon="6.51259">
        <ele>2193.284</ele>
        <time>2009-12-14T12:37:05Z</time>
      </trkpt>
      <trkpt lat="45.3203" lon="6.51259">
        <ele>2192.497</ele>
        <time>2009-12-14T12:37:08Z</time>
      </trkpt>
      <trkpt lat="45.32021" lon="6.51261">
        <ele>2191.784</ele>
        <time>2009-12-14T12:37:11Z</time>
      </trkpt>
      <trkpt lat="45.32012" lon="6.51267">
        <ele>2190.846</ele>
        <time>2009-12-14T12:37:14Z</time>
      </trkpt>
      <trkpt lat="45.32002" lon="6.51274">
        <ele>2188.299</ele>
        <time>2009-12-14T12:37:17Z</time>
      </trkpt>
      <trkpt lat="45.31991" lon="6.5128">
        <ele>2187.441</ele>
        <time>2009-12-14T12:37:19Z</time>
      </trkpt>
      <trkpt lat="45.31981" lon="6.51283">
        <ele>2186.452</ele>
        <time>2009-12-14T12:37:21Z</time>
      </trkpt>
      <trkpt lat="45.31972" lon="6.51285">
        <ele>2185.706</ele>
        <time>2009-12-14T12:37:23Z</time>
      </trkpt>
      <trkpt lat="45.31963" lon="6.5129">
        <ele>2185.123</ele>
        <time>2009-12-14T12:37:25Z</time>
      </trkpt>
      <trkpt lat="45.31951" lon="6.51297">
        <ele>2182.924</ele>
        <time>2009-12-14T12:37:28Z</time>
      </trkpt>
      <trkpt lat="45.31943" lon="6.51305">
        <ele>2181.563</ele>
        <time>2009-12-14T12:37:30Z</time>
      </trkpt>
      <trkpt lat="45.31935" lon="6.51312">
        <ele>2181.165</ele>
        <time>2009-12-14T12:37:32Z</time>
      </trkpt>
      <trkpt lat="45.31928" lon="6.51322">
        <ele>2179.41</ele>
        <time>2009-12-14T12:37:35Z</time>
      </trkpt>
      <trkpt lat="45.31922" lon="6.51332">
        <ele>2177.031</ele>
        <time>2009-12-14T12:37:39Z</time>
      </trkpt>
      <trkpt lat="45.31914" lon="6.5134">
        <ele>2177.401</ele>
        <time>2009-12-14T12:37:45Z</time>
      </trkpt>
      <trkpt lat="45.31907" lon="6.51351">
        <ele>2176.841</ele>
        <time>2009-12-14T12:37:52Z</time>
      </trkpt>
      <trkpt lat="45.31897" lon="6.51359">
        <ele>2175.766</ele>
        <time>2009-12-14T12:37:57Z</time>
      </trkpt>
      <trkpt lat="45.31889" lon="6.51366">
        <ele>2175.821</ele>
        <time>2009-12-14T12:38:01Z</time>
      </trkpt>
      <trkpt lat="45.3188" lon="6.51374">
        <ele>2175.225</ele>
        <time>2009-12-14T12:38:05Z</time>
      </trkpt>
      <trkpt lat="45.31872" lon="6.51382">
        <ele>2175.341</ele>
        <time>2009-12-14T12:38:10Z</time>
      </trkpt>
      <trkpt lat="45.31862" lon="6.51389">
        <ele>2174.578</ele>
        <time>2009-12-14T12:38:14Z</time>
      </trkpt>
      <trkpt lat="45.31853" lon="6.51393">
        <ele>2173.121</ele>
        <time>2009-12-14T12:38:17Z</time>
      </trkpt>
      <trkpt lat="45.31844" lon="6.51399">
        <ele>2172.391</ele>
        <time>2009-12-14T12:38:20Z</time>
      </trkpt>
      <trkpt lat="45.31833" lon="6.51403">
        <ele>2168.471</ele>
        <time>2009-12-14T12:38:24Z</time>
      </trkpt>
      <trkpt lat="45.31821" lon="6.51409">
        <ele>2165.482</ele>
        <time>2009-12-14T12:38:27Z</time>
      </trkpt>
      <trkpt lat="45.31813" lon="6.51406">
        <ele>2163.408</ele>
        <time>2009-12-14T12:38:35Z</time>
      </trkpt>
      <trkpt lat="45.31804" lon="6.51413">
        <ele>2161.533</ele>
        <time>2009-12-14T12:38:42Z</time>
      </trkpt>
      <trkpt lat="45.31808" lon="6.51426">
        <ele>2159.582</ele>
        <time>2009-12-14T12:38:45Z</time>
      </trkpt>
      <trkpt lat="45.31817" lon="6.51437">
        <ele>2157.341</ele>
        <time>2009-12-14T12:38:48Z</time>
      </trkpt>
      <trkpt lat="45.31811" lon="6.51449">
        <ele>2154.083</ele>
        <time>2009-12-14T12:38:52Z</time>
      </trkpt>
      <trkpt lat="45.31804" lon="6.51457">
        <ele>2153.751</ele>
        <time>2009-12-14T12:39:02Z</time>
      </trkpt>
      <trkpt lat="45.31795" lon="6.51464">
        <ele>2153.345</ele>
        <time>2009-12-14T12:39:12Z</time>
      </trkpt>
      <trkpt lat="45.31785" lon="6.51466">
        <ele>2152.222</ele>
        <time>2009-12-14T12:39:20Z</time>
      </trkpt>
      <trkpt lat="45.31776" lon="6.51472">
        <ele>2151.21</ele>
        <time>2009-12-14T12:39:26Z</time>
      </trkpt>
      <trkpt lat="45.31776" lon="6.51485">
        <ele>2148.25</ele>
        <time>2009-12-14T12:39:43Z</time>
      </trkpt>
      <trkpt lat="45.31769" lon="6.51493">
        <ele>2148.994</ele>
        <time>2009-12-14T12:39:58Z</time>
      </trkpt>
      <trkpt lat="45.31761" lon="6.51501">
        <ele>2150.421</ele>
        <time>2009-12-14T12:40:12Z</time>
      </trkpt>
      <trkpt lat="45.31754" lon="6.51508">
        <ele>2150.032</ele>
        <time>2009-12-14T12:40:21Z</time>
      </trkpt>
      <trkpt lat="45.31745" lon="6.51515">
        <ele>2149.679</ele>
        <time>2009-12-14T12:40:34Z</time>
      </trkpt>
      <trkpt lat="45.31737" lon="6.5152">
        <ele>2149.95</ele>
        <time>2009-12-14T12:40:39Z</time>
      </trkpt>
      <trkpt lat="45.31727" lon="6.51524">
        <ele>2149.58</ele>
        <time>2009-12-14T12:40:45Z</time>
      </trkpt>
      <trkpt lat="45.31716" lon="6.5153">
        <ele>2147.584</ele>
        <time>2009-12-14T12:40:50Z</time>
      </trkpt>
      <trkpt lat="45.31706" lon="6.5154">
        <ele>2147.361</ele>
        <time>2009-12-14T12:40:53Z</time>
      </trkpt>
      <trkpt lat="45.31698" lon="6.51546">
        <ele>2147.077</ele>
        <time>2009-12-14T12:40:57Z</time>
      </trkpt>
      <trkpt lat="45.3169" lon="6.51553">
        <ele>2145.291</ele>
        <time>2009-12-14T12:41:03Z</time>
      </trkpt>
      <trkpt lat="45.31683" lon="6.51562">
        <ele>2144.457</ele>
        <time>2009-12-14T12:41:17Z</time>
      </trkpt>
      <trkpt lat="45.31673" lon="6.51572">
        <ele>2143.931</ele>
        <time>2009-12-14T12:41:30Z</time>
      </trkpt>
      <trkpt lat="45.31664" lon="6.51575">
        <ele>2144.323</ele>
        <time>2009-12-14T12:41:35Z</time>
      </trkpt>
      <trkpt lat="45.31655" lon="6.5158">
        <ele>2144.202</ele>
        <time>2009-12-14T12:41:54Z</time>
      </trkpt>
      <trkpt lat="45.31646" lon="6.51581">
        <ele>2146.082</ele>
        <time>2009-12-14T12:42:16Z</time>
      </trkpt>
      <trkpt lat="45.31637" lon="6.51578">
        <ele>2147.499</ele>
        <time>2009-12-14T12:42:33Z</time>
      </trkpt>
      <trkpt lat="45.31628" lon="6.51571">
        <ele>2146.022</ele>
        <time>2009-12-14T12:42:42Z</time>
      </trkpt>
      <trkpt lat="45.31619" lon="6.51566">
        <ele>2146.446</ele>
        <time>2009-12-14T12:42:47Z</time>
      </trkpt>
      <trkpt lat="45.3161" lon="6.51566">
        <ele>2145.591</ele>
        <time>2009-12-14T12:42:55Z</time>
      </trkpt>
      <trkpt lat="45.316" lon="6.51565">
        <ele>2147.213</ele>
        <time>2009-12-14T12:43:03Z</time>
      </trkpt>
      <trkpt lat="45.31597" lon="6.51577">
        <ele>2145.42</ele>
        <time>2009-12-14T12:44:09Z</time>
      </trkpt>
      <trkpt lat="45.31593" lon="6.51589">
        <ele>2145.914</ele>
        <time>2009-12-14T12:44:34Z</time>
      </trkpt>
      <trkpt lat="45.31589" lon="6.516">
        <ele>2147.921</ele>
        <time>2009-12-14T12:44:49Z</time>
      </trkpt>
      <trkpt lat="45.31586" lon="6.51613">
        <ele>2150.843</ele>
        <time>2009-12-14T12:45:08Z</time>
      </trkpt>
      <trkpt lat="45.31582" lon="6.51624">
        <ele>2152.626</ele>
        <time>2009-12-14T12:45:24Z</time>
      </trkpt>
      <trkpt lat="45.31582" lon="6.51637">
        <ele>2154.478</ele>
        <time>2009-12-14T12:45:42Z</time>
      </trkpt>
      <trkpt lat="45.31588" lon="6.51647">
        <ele>2155.201</ele>
        <time>2009-12-14T12:45:57Z</time>
      </trkpt>
      <trkpt lat="45.31592" lon="6.51659">
        <ele>2154.773</ele>
        <time>2009-12-14T12:46:23Z</time>
      </trkpt>
      <trkpt lat="45.31597" lon="6.5167">
        <ele>2155.6</ele>
        <time>2009-12-14T12:46:33Z</time>
      </trkpt>
      <trkpt lat="45.31604" lon="6.51682">
        <ele>2153.799</ele>
        <time>2009-12-14T12:46:38Z</time>
      </trkpt>
      <trkpt lat="45.31611" lon="6.51693">
        <ele>2151.419</ele>
        <time>2009-12-14T12:46:41Z</time>
      </trkpt>
      <trkpt lat="45.31618" lon="6.51703">
        <ele>2149.998</ele>
        <time>2009-12-14T12:46:44Z</time>
      </trkpt>
      <trkpt lat="45.31627" lon="6.51713">
        <ele>2148.062</ele>
        <time>2009-12-14T12:46:48Z</time>
      </trkpt>
      <trkpt lat="45.31635" lon="6.51722">
        <ele>2145.213</ele>
        <time>2009-12-14T12:46:52Z</time>
      </trkpt>
      <trkpt lat="45.31641" lon="6.51735">
        <ele>2144.496</ele>
        <time>2009-12-14T12:46:57Z</time>
      </trkpt>
      <trkpt lat="45.31642" lon="6.51749">
        <ele>2144.222</ele>
        <time>2009-12-14T12:47:02Z</time>
      </trkpt>
      <trkpt lat="45.31642" lon="6.51764">
        <ele>2142.785</ele>
        <time>2009-12-14T12:47:07Z</time>
      </trkpt>
      <trkpt lat="45.31651" lon="6.51768">
        <ele>2142.675</ele>
        <time>2009-12-14T12:48:05Z</time>
      </trkpt>
      <trkpt lat="45.31663" lon="6.51767">
        <ele>2140.816</ele>
        <time>2009-12-14T12:48:08Z</time>
      </trkpt>
      <trkpt lat="45.31669" lon="6.51781">
        <ele>2138.798</ele>
        <time>2009-12-14T12:48:11Z</time>
      </trkpt>
      <trkpt lat="45.31679" lon="6.51779">
        <ele>2137.819</ele>
        <time>2009-12-14T12:48:13Z</time>
      </trkpt>
      <trkpt lat="45.31688" lon="6.51792">
        <ele>2135.522</ele>
        <time>2009-12-14T12:48:16Z</time>
      </trkpt>
      <trkpt lat="45.31696" lon="6.51804">
        <ele>2134.14</ele>
        <time>2009-12-14T12:48:19Z</time>
      </trkpt>
      <trkpt lat="45.31707" lon="6.51813">
        <ele>2132.186</ele>
        <time>2009-12-14T12:48:22Z</time>
      </trkpt>
      <trkpt lat="45.31715" lon="6.51824">
        <ele>2131.56</ele>
        <time>2009-12-14T12:48:25Z</time>
      </trkpt>
      <trkpt lat="45.31725" lon="6.51828">
        <ele>2129.637</ele>
        <time>2009-12-14T12:48:27Z</time>
      </trkpt>
      <trkpt lat="45.31731" lon="6.51841">
        <ele>2128.103</ele>
        <time>2009-12-14T12:48:29Z</time>
      </trkpt>
      <trkpt lat="45.31741" lon="6.51847">
        <ele>2128.188</ele>
        <time>2009-12-14T12:48:31Z</time>
      </trkpt>
      <trkpt lat="45.3175" lon="6.51859">
        <ele>2125.959</ele>
        <time>2009-12-14T12:48:33Z</time>
      </trkpt>
      <trkpt lat="45.31761" lon="6.51866">
        <ele>2126.612</ele>
        <time>2009-12-14T12:48:35Z</time>
      </trkpt>
      <trkpt lat="45.31773" lon="6.5187">
        <ele>2125.398</ele>
        <time>2009-12-14T12:48:37Z</time>
      </trkpt>
      <trkpt lat="45.31783" lon="6.51884">
        <ele>2125.059</ele>
        <time>2009-12-14T12:48:39Z</time>
      </trkpt>
      <trkpt lat="45.31794" lon="6.51887">
        <ele>2123.76</ele>
        <time>2009-12-14T12:48:41Z</time>
      </trkpt>
      <trkpt lat="45.31807" lon="6.51894">
        <ele>2123.756</ele>
        <time>2009-12-14T12:48:43Z</time>
      </trkpt>
      <trkpt lat="45.31823" lon="6.51898">
        <ele>2123.11</ele>
        <time>2009-12-14T12:48:45Z</time>
      </trkpt>
      <trkpt lat="45.31838" lon="6.519">
        <ele>2122.34</ele>
        <time>2009-12-14T12:48:47Z</time>
      </trkpt>
      <trkpt lat="45.31852" lon="6.51903">
        <ele>2122.073</ele>
        <time>2009-12-14T12:48:49Z</time>
      </trkpt>
      <trkpt lat="45.31866" lon="6.51904">
        <ele>2120.121</ele>
        <time>2009-12-14T12:48:51Z</time>
      </trkpt>
      <trkpt lat="45.31879" lon="6.51911">
        <ele>2119.515</ele>
        <time>2009-12-14T12:48:53Z</time>
      </trkpt>
      <trkpt lat="45.31894" lon="6.51917">
        <ele>2118.065</ele>
        <time>2009-12-14T12:48:55Z</time>
      </trkpt>
      <trkpt lat="45.31909" lon="6.51921">
        <ele>2116.472</ele>
        <time>2009-12-14T12:48:57Z</time>
      </trkpt>
      <trkpt lat="45.31921" lon="6.51929">
        <ele>2112.107</ele>
        <time>2009-12-14T12:48:59Z</time>
      </trkpt>
      <trkpt lat="45.31933" lon="6.51936">
        <ele>2105.002</ele>
        <time>2009-12-14T12:49:01Z</time>
      </trkpt>
      <trkpt lat="45.31943" lon="6.51945">
        <ele>2097.888</ele>
        <time>2009-12-14T12:49:03Z</time>
      </trkpt>
      <trkpt lat="45.3195" lon="6.51954">
        <ele>2091.719</ele>
        <time>2009-12-14T12:49:05Z</time>
      </trkpt>
      <trkpt lat="45.31957" lon="6.51961">
        <ele>2085.155</ele>
        <time>2009-12-14T12:50:21Z</time>
      </trkpt>
      <trkpt lat="45.31966" lon="6.51965">
        <ele>2083.403</ele>
        <time>2009-12-14T12:50:23Z</time>
      </trkpt>
      <trkpt lat="45.31978" lon="6.51972">
        <ele>2080.987</ele>
        <time>2009-12-14T12:50:25Z</time>
      </trkpt>
      <trkpt lat="45.31991" lon="6.51979">
        <ele>2079.763</ele>
        <time>2009-12-14T12:50:27Z</time>
      </trkpt>
      <trkpt lat="45.32007" lon="6.51986">
        <ele>2078.077</ele>
        <time>2009-12-14T12:50:29Z</time>
      </trkpt>
      <trkpt lat="45.32022" lon="6.51993">
        <ele>2076.673</ele>
        <time>2009-12-14T12:50:31Z</time>
      </trkpt>
      <trkpt lat="45.32036" lon="6.51996">
        <ele>2074.291</ele>
        <time>2009-12-14T12:50:33Z</time>
      </trkpt>
      <trkpt lat="45.32047" lon="6.52003">
        <ele>2072.65</ele>
        <time>2009-12-14T12:50:35Z</time>
      </trkpt>
      <trkpt lat="45.32057" lon="6.5201">
        <ele>2070.96</ele>
        <time>2009-12-14T12:50:37Z</time>
      </trkpt>
      <trkpt lat="45.32066" lon="6.52016">
        <ele>2069.498</ele>
        <time>2009-12-14T12:50:39Z</time>
      </trkpt>
      <trkpt lat="45.32076" lon="6.52018">
        <ele>2067.948</ele>
        <time>2009-12-14T12:50:41Z</time>
      </trkpt>
      <trkpt lat="45.32086" lon="6.52023">
        <ele>2066.622</ele>
        <time>2009-12-14T12:50:43Z</time>
      </trkpt>
      <trkpt lat="45.32097" lon="6.52024">
        <ele>2064.308</ele>
        <time>2009-12-14T12:50:45Z</time>
      </trkpt>
      <trkpt lat="45.32106" lon="6.52034">
        <ele>2063.073</ele>
        <time>2009-12-14T12:50:47Z</time>
      </trkpt>
      <trkpt lat="45.32117" lon="6.52041">
        <ele>2060.703</ele>
        <time>2009-12-14T12:50:49Z</time>
      </trkpt>
      <trkpt lat="45.32124" lon="6.52052">
        <ele>2058.772</ele>
        <time>2009-12-14T12:50:51Z</time>
      </trkpt>
      <trkpt lat="45.32135" lon="6.5206">
        <ele>2056.597</ele>
        <time>2009-12-14T12:50:53Z</time>
      </trkpt>
      <trkpt lat="45.32146" lon="6.52067">
        <ele>2054.216</ele>
        <time>2009-12-14T12:50:55Z</time>
      </trkpt>
      <trkpt lat="45.32157" lon="6.52073">
        <ele>2052.699</ele>
        <time>2009-12-14T12:50:57Z</time>
      </trkpt>
      <trkpt lat="45.32168" lon="6.52081">
        <ele>2051.122</ele>
        <time>2009-12-14T12:50:59Z</time>
      </trkpt>
      <trkpt lat="45.32178" lon="6.52085">
        <ele>2048.089</ele>
        <time>2009-12-14T12:51:01Z</time>
      </trkpt>
      <trkpt lat="45.32187" lon="6.5209">
        <ele>2045.563</ele>
        <time>2009-12-14T12:51:03Z</time>
      </trkpt>
      <trkpt lat="45.32195" lon="6.52096">
        <ele>2042.489</ele>
        <time>2009-12-14T12:51:05Z</time>
      </trkpt>
      <trkpt lat="45.32204" lon="6.52098">
        <ele>2040.06</ele>
        <time>2009-12-14T12:51:07Z</time>
      </trkpt>
      <trkpt lat="45.32212" lon="6.52108">
        <ele>2036.566</ele>
        <time>2009-12-14T12:51:10Z</time>
      </trkpt>
      <trkpt lat="45.32223" lon="6.52114">
        <ele>2033.354</ele>
        <time>2009-12-14T12:51:13Z</time>
      </trkpt>
      <trkpt lat="45.32232" lon="6.52121">
        <ele>2029.274</ele>
        <time>2009-12-14T12:51:16Z</time>
      </trkpt>
      <trkpt lat="45.32228" lon="6.52131">
        <ele>2024.129</ele>
        <time>2009-12-14T12:51:32Z</time>
      </trkpt>
      <trkpt lat="45.32231" lon="6.52144">
        <ele>2020.752</ele>
        <time>2009-12-14T12:51:36Z</time>
      </trkpt>
      <trkpt lat="45.3224" lon="6.5215">
        <ele>2015.568</ele>
        <time>2009-12-14T12:51:40Z</time>
      </trkpt>
      <trkpt lat="45.32246" lon="6.52162">
        <ele>2011.179</ele>
        <time>2009-12-14T12:51:43Z</time>
      </trkpt>
      <trkpt lat="45.32255" lon="6.5217">
        <ele>2008.617</ele>
        <time>2009-12-14T12:51:46Z</time>
      </trkpt>
      <trkpt lat="45.32264" lon="6.52175">
        <ele>2004.933</ele>
        <time>2009-12-14T12:51:49Z</time>
      </trkpt>
      <trkpt lat="45.32273" lon="6.52175">
        <ele>1999.337</ele>
        <time>2009-12-14T12:51:52Z</time>
      </trkpt>
      <trkpt lat="45.32284" lon="6.52182">
        <ele>1995.166</ele>
        <time>2009-12-14T12:51:55Z</time>
      </trkpt>
      <trkpt lat="45.32295" lon="6.5218">
        <ele>1990.563</ele>
        <time>2009-12-14T12:51:57Z</time>
      </trkpt>
      <trkpt lat="45.32305" lon="6.52176">
        <ele>1988.666</ele>
        <time>2009-12-14T12:51:59Z</time>
      </trkpt>
      <trkpt lat="45.32303" lon="6.5219">
        <ele>1985.794</ele>
        <time>2009-12-14T12:52:41Z</time>
      </trkpt>
      <trkpt lat="45.32298" lon="6.522">
        <ele>1985.636</ele>
        <time>2009-12-14T12:52:44Z</time>
      </trkpt>
      <trkpt lat="45.32293" lon="6.52214">
        <ele>1985.006</ele>
        <time>2009-12-14T12:52:47Z</time>
      </trkpt>
      <trkpt lat="45.32288" lon="6.52232">
        <ele>1983.425</ele>
        <time>2009-12-14T12:52:50Z</time>
      </trkpt>
      <trkpt lat="45.32285" lon="6.52245">
        <ele>1981.749</ele>
        <time>2009-12-14T12:52:52Z</time>
      </trkpt>
      <trkpt lat="45.32282" lon="6.52258">
        <ele>1981.255</ele>
        <time>2009-12-14T12:52:54Z</time>
      </trkpt>
      <trkpt lat="45.32279" lon="6.52271">
        <ele>1980.488</ele>
        <time>2009-12-14T12:52:56Z</time>
      </trkpt>
      <trkpt lat="45.32277" lon="6.52287">
        <ele>1979.819</ele>
        <time>2009-12-14T12:52:59Z</time>
      </trkpt>
      <trkpt lat="45.32274" lon="6.52302">
        <ele>1977.844</ele>
        <time>2009-12-14T12:53:02Z</time>
      </trkpt>
      <trkpt lat="45.32271" lon="6.52318">
        <ele>1975.788</ele>
        <time>2009-12-14T12:53:05Z</time>
      </trkpt>
      <trkpt lat="45.32266" lon="6.52335">
        <ele>1974.07</ele>
        <time>2009-12-14T12:53:08Z</time>
      </trkpt>
      <trkpt lat="45.32261" lon="6.52346">
        <ele>1973.057</ele>
        <time>2009-12-14T12:53:10Z</time>
      </trkpt>
      <trkpt lat="45.32252" lon="6.52357">
        <ele>1971.946</ele>
        <time>2009-12-14T12:53:13Z</time>
      </trkpt>
      <trkpt lat="45.32241" lon="6.52361">
        <ele>1971.495</ele>
        <time>2009-12-14T12:53:16Z</time>
      </trkpt>
      <trkpt lat="45.32232" lon="6.52363">
        <ele>1970.286</ele>
        <time>2009-12-14T12:53:19Z</time>
      </trkpt>
      <trkpt lat="45.32221" lon="6.52367">
        <ele>1969.527</ele>
        <time>2009-12-14T12:53:23Z</time>
      </trkpt>
      <trkpt lat="45.3221" lon="6.5237">
        <ele>1968.467</ele>
        <time>2009-12-14T12:53:27Z</time>
      </trkpt>
      <trkpt lat="45.322" lon="6.52374">
        <ele>1966.554</ele>
        <time>2009-12-14T12:53:30Z</time>
      </trkpt>
      <trkpt lat="45.32189" lon="6.5238">
        <ele>1964.941</ele>
        <time>2009-12-14T12:53:33Z</time>
      </trkpt>
      <trkpt lat="45.32179" lon="6.52388">
        <ele>1963.413</ele>
        <time>2009-12-14T12:53:36Z</time>
      </trkpt>
      <trkpt lat="45.32168" lon="6.52395">
        <ele>1962.435</ele>
        <time>2009-12-14T12:53:39Z</time>
      </trkpt>
      <trkpt lat="45.32159" lon="6.52402">
        <ele>1961.623</ele>
        <time>2009-12-14T12:53:41Z</time>
      </trkpt>
      <trkpt lat="45.3215" lon="6.5241">
        <ele>1961.246</ele>
        <time>2009-12-14T12:53:43Z</time>
      </trkpt>
      <trkpt lat="45.32141" lon="6.52418">
        <ele>1960.088</ele>
        <time>2009-12-14T12:53:45Z</time>
      </trkpt>
      <trkpt lat="45.3213" lon="6.52427">
        <ele>1958.774</ele>
        <time>2009-12-14T12:53:47Z</time>
      </trkpt>
      <trkpt lat="45.3212" lon="6.52437">
        <ele>1957.213</ele>
        <time>2009-12-14T12:53:49Z</time>
      </trkpt>
      <trkpt lat="45.3211" lon="6.52448">
        <ele>1956.187</ele>
        <time>2009-12-14T12:53:51Z</time>
      </trkpt>
      <trkpt lat="45.32101" lon="6.52461">
        <ele>1954.492</ele>
        <time>2009-12-14T12:53:53Z</time>
      </trkpt>
      <trkpt lat="45.32095" lon="6.52475">
        <ele>1952.999</ele>
        <time>2009-12-14T12:53:55Z</time>
      </trkpt>
      <trkpt lat="45.3209" lon="6.5249">
        <ele>1951.549</ele>
        <time>2009-12-14T12:53:57Z</time>
      </trkpt>
      <trkpt lat="45.3209" lon="6.52505">
        <ele>1950.718</ele>
        <time>2009-12-14T12:53:59Z</time>
      </trkpt>
      <trkpt lat="45.32093" lon="6.52518">
        <ele>1949.073</ele>
        <time>2009-12-14T12:54:33Z</time>
      </trkpt>
      <trkpt lat="45.32094" lon="6.52533">
        <ele>1948.549</ele>
        <time>2009-12-14T12:54:38Z</time>
      </trkpt>
      <trkpt lat="45.32096" lon="6.52547">
        <ele>1947.388</ele>
        <time>2009-12-14T12:54:43Z</time>
      </trkpt>
      <trkpt lat="45.32101" lon="6.52557">
        <ele>1945.766</ele>
        <time>2009-12-14T12:54:46Z</time>
      </trkpt>
      <trkpt lat="45.32106" lon="6.52569">
        <ele>1946.417</ele>
        <time>2009-12-14T12:54:48Z</time>
      </trkpt>
      <trkpt lat="45.32102" lon="6.52585">
        <ele>1945.515</ele>
        <time>2009-12-14T12:54:51Z</time>
      </trkpt>
      <trkpt lat="45.32104" lon="6.52599">
        <ele>1945.457</ele>
        <time>2009-12-14T12:54:53Z</time>
      </trkpt>
      <trkpt lat="45.32096" lon="6.52614">
        <ele>1941.583</ele>
        <time>2009-12-14T12:54:56Z</time>
      </trkpt>
      <trkpt lat="45.32097" lon="6.52631">
        <ele>1938.205</ele>
        <time>2009-12-14T12:54:59Z</time>
      </trkpt>
      <trkpt lat="45.32091" lon="6.52641">
        <ele>1935.557</ele>
        <time>2009-12-14T12:55:01Z</time>
      </trkpt>
      <trkpt lat="45.32089" lon="6.52659">
        <ele>1932.799</ele>
        <time>2009-12-14T12:55:04Z</time>
      </trkpt>
      <trkpt lat="45.32084" lon="6.52672">
        <ele>1930.622</ele>
        <time>2009-12-14T12:55:06Z</time>
      </trkpt>
      <trkpt lat="45.32082" lon="6.52687">
        <ele>1928.339</ele>
        <time>2009-12-14T12:55:08Z</time>
      </trkpt>
      <trkpt lat="45.32081" lon="6.52703">
        <ele>1927.367</ele>
        <time>2009-12-14T12:55:10Z</time>
      </trkpt>
      <trkpt lat="45.3208" lon="6.52718">
        <ele>1926.009</ele>
        <time>2009-12-14T12:55:12Z</time>
      </trkpt>
      <trkpt lat="45.32077" lon="6.52733">
        <ele>1925.808</ele>
        <time>2009-12-14T12:55:14Z</time>
      </trkpt>
      <trkpt lat="45.32071" lon="6.52747">
        <ele>1923.597</ele>
        <time>2009-12-14T12:55:16Z</time>
      </trkpt>
      <trkpt lat="45.32067" lon="6.52762">
        <ele>1920.563</ele>
        <time>2009-12-14T12:55:18Z</time>
      </trkpt>
      <trkpt lat="45.32065" lon="6.52779">
        <ele>1918.142</ele>
        <time>2009-12-14T12:55:20Z</time>
      </trkpt>
      <trkpt lat="45.32064" lon="6.52796">
        <ele>1917.008</ele>
        <time>2009-12-14T12:55:22Z</time>
      </trkpt>
      <trkpt lat="45.32059" lon="6.5281">
        <ele>1916.586</ele>
        <time>2009-12-14T12:55:24Z</time>
      </trkpt>
      <trkpt lat="45.32052" lon="6.52822">
        <ele>1914.874</ele>
        <time>2009-12-14T12:55:26Z</time>
      </trkpt>
      <trkpt lat="45.32047" lon="6.52835">
        <ele>1914.165</ele>
        <time>2009-12-14T12:55:28Z</time>
      </trkpt>
      <trkpt lat="45.32041" lon="6.52848">
        <ele>1914.357</ele>
        <time>2009-12-14T12:55:30Z</time>
      </trkpt>
      <trkpt lat="45.32035" lon="6.52861">
        <ele>1913.656</ele>
        <time>2009-12-14T12:55:32Z</time>
      </trkpt>
      <trkpt lat="45.32032" lon="6.52875">
        <ele>1913.435</ele>
        <time>2009-12-14T12:55:34Z</time>
      </trkpt>
      <trkpt lat="45.32026" lon="6.52886">
        <ele>1911.09</ele>
        <time>2009-12-14T12:55:36Z</time>
      </trkpt>
      <trkpt lat="45.32022" lon="6.52898">
        <ele>1909.376</ele>
        <time>2009-12-14T12:55:38Z</time>
      </trkpt>
      <trkpt lat="45.32015" lon="6.52913">
        <ele>1907.16</ele>
        <time>2009-12-14T12:55:41Z</time>
      </trkpt>
      <trkpt lat="45.32008" lon="6.52923">
        <ele>1904.047</ele>
        <time>2009-12-14T12:55:43Z</time>
      </trkpt>
      <trkpt lat="45.32002" lon="6.52935">
        <ele>1902.533</ele>
        <time>2009-12-14T12:55:45Z</time>
      </trkpt>
      <trkpt lat="45.31995" lon="6.52946">
        <ele>1900.272</ele>
        <time>2009-12-14T12:55:47Z</time>
      </trkpt>
      <trkpt lat="45.3199" lon="6.52958">
        <ele>1898.919</ele>
        <time>2009-12-14T12:55:49Z</time>
      </trkpt>
      <trkpt lat="45.31984" lon="6.5297">
        <ele>1897.596</ele>
        <time>2009-12-14T12:55:51Z</time>
      </trkpt>
      <trkpt lat="45.31979" lon="6.52981">
        <ele>1896.048</ele>
        <time>2009-12-14T12:55:53Z</time>
      </trkpt>
      <trkpt lat="45.31974" lon="6.52992">
        <ele>1895.566</ele>
        <time>2009-12-14T12:55:55Z</time>
      </trkpt>
      <trkpt lat="45.31975" lon="6.53009">
        <ele>1893.517</ele>
        <time>2009-12-14T12:55:58Z</time>
      </trkpt>
      <trkpt lat="45.31979" lon="6.5302">
        <ele>1891.908</ele>
        <time>2009-12-14T12:56:18Z</time>
      </trkpt>
      <trkpt lat="45.31987" lon="6.53016">
        <ele>1891.4</ele>
        <time>2009-12-14T12:56:57Z</time>
      </trkpt>
      <trkpt lat="45.32001" lon="6.53012">
        <ele>1889.493</ele>
        <time>2009-12-14T12:57:00Z</time>
      </trkpt>
      <trkpt lat="45.32011" lon="6.53009">
        <ele>1888.241</ele>
        <time>2009-12-14T12:57:02Z</time>
      </trkpt>
      <trkpt lat="45.32021" lon="6.53003">
        <ele>1887.868</ele>
        <time>2009-12-14T12:57:05Z</time>
      </trkpt>
      <trkpt lat="45.32029" lon="6.52993">
        <ele>1886.389</ele>
        <time>2009-12-14T12:57:08Z</time>
      </trkpt>
      <trkpt lat="45.32039" lon="6.52986">
        <ele>1883.916</ele>
        <time>2009-12-14T12:57:11Z</time>
      </trkpt>
      <trkpt lat="45.32049" lon="6.52994">
        <ele>1882.368</ele>
        <time>2009-12-14T12:57:14Z</time>
      </trkpt>
      <trkpt lat="45.32053" lon="6.53007">
        <ele>1879.989</ele>
        <time>2009-12-14T12:57:17Z</time>
      </trkpt>
      <trkpt lat="45.32052" lon="6.53021">
        <ele>1877.984</ele>
        <time>2009-12-14T12:57:20Z</time>
      </trkpt>
      <trkpt lat="45.32058" lon="6.53032">
        <ele>1876.271</ele>
        <time>2009-12-14T12:57:24Z</time>
      </trkpt>
      <trkpt lat="45.32066" lon="6.53019">
        <ele>1874.05</ele>
        <time>2009-12-14T12:57:28Z</time>
      </trkpt>
      <trkpt lat="45.32071" lon="6.53008">
        <ele>1871.005</ele>
        <time>2009-12-14T12:57:30Z</time>
      </trkpt>
      <trkpt lat="45.32074" lon="6.52995">
        <ele>1869.929</ele>
        <time>2009-12-14T12:57:32Z</time>
      </trkpt>
      <trkpt lat="45.32074" lon="6.52981">
        <ele>1869.178</ele>
        <time>2009-12-14T12:57:34Z</time>
      </trkpt>
      <trkpt lat="45.32075" lon="6.52967">
        <ele>1868.712</ele>
        <time>2009-12-14T12:57:36Z</time>
      </trkpt>
      <trkpt lat="45.3208" lon="6.52955">
        <ele>1867.779</ele>
        <time>2009-12-14T12:57:38Z</time>
      </trkpt>
      <trkpt lat="45.32086" lon="6.52938">
        <ele>1865.597</ele>
        <time>2009-12-14T12:57:41Z</time>
      </trkpt>
      <trkpt lat="45.32091" lon="6.52925">
        <ele>1864.157</ele>
        <time>2009-12-14T12:57:43Z</time>
      </trkpt>
      <trkpt lat="45.32096" lon="6.52913">
        <ele>1862.589</ele>
        <time>2009-12-14T12:57:45Z</time>
      </trkpt>
      <trkpt lat="45.32103" lon="6.52901">
        <ele>1862.303</ele>
        <time>2009-12-14T12:57:47Z</time>
      </trkpt>
      <trkpt lat="45.3211" lon="6.5289">
        <ele>1861.231</ele>
        <time>2009-12-14T12:57:49Z</time>
      </trkpt>
      <trkpt lat="45.32118" lon="6.52878">
        <ele>1858.712</ele>
        <time>2009-12-14T12:57:51Z</time>
      </trkpt>
      <trkpt lat="45.32125" lon="6.52866">
        <ele>1857.106</ele>
        <time>2009-12-14T12:57:53Z</time>
      </trkpt>
      <trkpt lat="45.32132" lon="6.52856">
        <ele>1856.206</ele>
        <time>2009-12-14T12:57:55Z</time>
      </trkpt>
      <trkpt lat="45.3214" lon="6.52847">
        <ele>1856.284</ele>
        <time>2009-12-14T12:57:57Z</time>
      </trkpt>
      <trkpt lat="45.3215" lon="6.52837">
        <ele>1856.471</ele>
        <time>2009-12-14T12:58:00Z</time>
      </trkpt>
      <trkpt lat="45.32159" lon="6.52829">
        <ele>1856.158</ele>
        <time>2009-12-14T12:58:03Z</time>
      </trkpt>
      <trkpt lat="45.32169" lon="6.5282">
        <ele>1855.407</ele>
        <time>2009-12-14T12:58:06Z</time>
      </trkpt>
      <trkpt lat="45.32178" lon="6.52811">
        <ele>1854.381</ele>
        <time>2009-12-14T12:58:09Z</time>
      </trkpt>
      <trkpt lat="45.32187" lon="6.52802">
        <ele>1855.739</ele>
        <time>2009-12-14T12:58:12Z</time>
      </trkpt>
      <trkpt lat="45.32196" lon="6.52794">
        <ele>1856.339</ele>
        <time>2009-12-14T12:58:15Z</time>
      </trkpt>
      <trkpt lat="45.32203" lon="6.52785">
        <ele>1856.381</ele>
        <time>2009-12-14T12:58:18Z</time>
      </trkpt>
      <trkpt lat="45.32211" lon="6.52776">
        <ele>1856.435</ele>
        <time>2009-12-14T12:58:21Z</time>
      </trkpt>
      <trkpt lat="45.32218" lon="6.52766">
        <ele>1854.483</ele>
        <time>2009-12-14T12:58:24Z</time>
      </trkpt>
      <trkpt lat="45.32224" lon="6.52756">
        <ele>1854.436</ele>
        <time>2009-12-14T12:58:27Z</time>
      </trkpt>
      <trkpt lat="45.32232" lon="6.52746">
        <ele>1854.601</ele>
        <time>2009-12-14T12:58:31Z</time>
      </trkpt>
      <trkpt lat="45.32239" lon="6.52738">
        <ele>1854.307</ele>
        <time>2009-12-14T12:58:34Z</time>
      </trkpt>
      <trkpt lat="45.32246" lon="6.52727">
        <ele>1853.823</ele>
        <time>2009-12-14T12:58:37Z</time>
      </trkpt>
      <trkpt lat="45.32254" lon="6.52716">
        <ele>1853.913</ele>
        <time>2009-12-14T12:58:40Z</time>
      </trkpt>
      <trkpt lat="45.32261" lon="6.52706">
        <ele>1851.867</ele>
        <time>2009-12-14T12:58:42Z</time>
      </trkpt>
      <trkpt lat="45.32268" lon="6.52697">
        <ele>1850.885</ele>
        <time>2009-12-14T12:58:44Z</time>
      </trkpt>
      <trkpt lat="45.32278" lon="6.52689">
        <ele>1849.094</ele>
        <time>2009-12-14T12:58:46Z</time>
      </trkpt>
      <trkpt lat="45.32289" lon="6.52685">
        <ele>1847.746</ele>
        <time>2009-12-14T12:58:48Z</time>
      </trkpt>
      <trkpt lat="45.323" lon="6.52686">
        <ele>1846.8</ele>
        <time>2009-12-14T12:58:50Z</time>
      </trkpt>
      <trkpt lat="45.3231" lon="6.52692">
        <ele>1847.317</ele>
        <time>2009-12-14T12:58:52Z</time>
      </trkpt>
      <trkpt lat="45.32315" lon="6.52705">
        <ele>1845.802</ele>
        <time>2009-12-14T12:58:54Z</time>
      </trkpt>
      <trkpt lat="45.32314" lon="6.52722">
        <ele>1843.58</ele>
        <time>2009-12-14T12:58:57Z</time>
      </trkpt>
      <trkpt lat="45.32313" lon="6.52737">
        <ele>1842.282</ele>
        <time>2009-12-14T12:59:00Z</time>
      </trkpt>
      <trkpt lat="45.32313" lon="6.52752">
        <ele>1840.56</ele>
        <time>2009-12-14T12:59:03Z</time>
      </trkpt>
      <trkpt lat="45.32312" lon="6.52765">
        <ele>1837.03</ele>
        <time>2009-12-14T12:59:06Z</time>
      </trkpt>
      <trkpt lat="45.32311" lon="6.52779">
        <ele>1835.559</ele>
        <time>2009-12-14T12:59:09Z</time>
      </trkpt>
      <trkpt lat="45.32306" lon="6.52795">
        <ele>1834.245</ele>
        <time>2009-12-14T12:59:12Z</time>
      </trkpt>
      <trkpt lat="45.32303" lon="6.52809">
        <ele>1833.847</ele>
        <time>2009-12-14T12:59:14Z</time>
      </trkpt>
      <trkpt lat="45.32301" lon="6.52822">
        <ele>1834.003</ele>
        <time>2009-12-14T12:59:16Z</time>
      </trkpt>
      <trkpt lat="45.32304" lon="6.52837">
        <ele>1832.036</ele>
        <time>2009-12-14T12:59:19Z</time>
      </trkpt>
      <trkpt lat="45.32308" lon="6.52851">
        <ele>1830.694</ele>
        <time>2009-12-14T12:59:22Z</time>
      </trkpt>
      <trkpt lat="45.32304" lon="6.52863">
        <ele>1829.584</ele>
        <time>2009-12-14T12:59:39Z</time>
      </trkpt>
      <trkpt lat="45.32308" lon="6.52876">
        <ele>1828.984</ele>
        <time>2009-12-14T13:00:21Z</time>
      </trkpt>
      <trkpt lat="45.32317" lon="6.5288">
        <ele>1828.901</ele>
        <time>2009-12-14T13:00:27Z</time>
      </trkpt>
      <trkpt lat="45.32327" lon="6.52879">
        <ele>1828.208</ele>
        <time>2009-12-14T13:00:34Z</time>
      </trkpt>
      <trkpt lat="45.32334" lon="6.52866">
        <ele>1825.805</ele>
        <time>2009-12-14T13:00:38Z</time>
      </trkpt>
      <trkpt lat="45.32337" lon="6.52853">
        <ele>1823.833</ele>
        <time>2009-12-14T13:00:40Z</time>
      </trkpt>
      <trkpt lat="45.32342" lon="6.5284">
        <ele>1823.669</ele>
        <time>2009-12-14T13:00:43Z</time>
      </trkpt>
      <trkpt lat="45.32354" lon="6.52848">
        <ele>1820.261</ele>
        <time>2009-12-14T13:00:47Z</time>
      </trkpt>
      <trkpt lat="45.32364" lon="6.52857">
        <ele>1817.518</ele>
        <time>2009-12-14T13:00:50Z</time>
      </trkpt>
      <trkpt lat="45.32372" lon="6.52862">
        <ele>1814.973</ele>
        <time>2009-12-14T13:00:53Z</time>
      </trkpt>
      <trkpt lat="45.3238" lon="6.52874">
        <ele>1813.722</ele>
        <time>2009-12-14T13:00:56Z</time>
      </trkpt>
      <trkpt lat="45.32387" lon="6.52886">
        <ele>1813.31</ele>
        <time>2009-12-14T13:00:59Z</time>
      </trkpt>
      <trkpt lat="45.32387" lon="6.52898">
        <ele>1811.243</ele>
        <time>2009-12-14T13:01:04Z</time>
      </trkpt>
      <trkpt lat="45.32394" lon="6.52891">
        <ele>1807.023</ele>
        <time>2009-12-14T13:01:13Z</time>
      </trkpt>
      <trkpt lat="45.32396" lon="6.52906">
        <ele>1806.115</ele>
        <time>2009-12-14T13:01:25Z</time>
      </trkpt>
      <trkpt lat="45.32394" lon="6.5292">
        <ele>1806.337</ele>
        <time>2009-12-14T13:01:33Z</time>
      </trkpt>
      <trkpt lat="45.32397" lon="6.52932">
        <ele>1805.323</ele>
        <time>2009-12-14T13:01:37Z</time>
      </trkpt>
      <trkpt lat="45.32405" lon="6.52927">
        <ele>1802.289</ele>
        <time>2009-12-14T13:01:41Z</time>
      </trkpt>
      <trkpt lat="45.3241" lon="6.52939">
        <ele>1798.411</ele>
        <time>2009-12-14T13:01:45Z</time>
      </trkpt>
      <trkpt lat="45.32415" lon="6.52947">
        <ele>1793.537</ele>
        <time>2009-12-14T13:01:50Z</time>
      </trkpt>
      <trkpt lat="45.32423" lon="6.52941">
        <ele>1790.436</ele>
        <time>2009-12-14T13:01:55Z</time>
      </trkpt>
      <trkpt lat="45.3243" lon="6.52942">
        <ele>1784.627</ele>
        <time>2009-12-14T13:02:05Z</time>
      </trkpt>
      <trkpt lat="45.32439" lon="6.52947">
        <ele>1779.801</ele>
        <time>2009-12-14T13:02:13Z</time>
      </trkpt>
      <trkpt lat="45.32448" lon="6.5294">
        <ele>1778.12</ele>
        <time>2009-12-14T13:02:19Z</time>
      </trkpt>
      <trkpt lat="45.32455" lon="6.52947">
        <ele>1774.369</ele>
        <time>2009-12-14T13:02:27Z</time>
      </trkpt>
      <trkpt lat="45.32453" lon="6.52961">
        <ele>1773.241</ele>
        <time>2009-12-14T13:02:37Z</time>
      </trkpt>
      <trkpt lat="45.32448" lon="6.52975">
        <ele>1772.306</ele>
        <time>2009-12-14T13:02:42Z</time>
      </trkpt>
      <trkpt lat="45.32443" lon="6.52986">
        <ele>1771.554</ele>
        <time>2009-12-14T13:02:47Z</time>
      </trkpt>
      <trkpt lat="45.32452" lon="6.52987">
        <ele>1766.121</ele>
        <time>2009-12-14T13:02:54Z</time>
      </trkpt>
      <trkpt lat="45.3245" lon="6.52999">
        <ele>1762.925</ele>
        <time>2009-12-14T13:03:02Z</time>
      </trkpt>
      <trkpt lat="45.32454" lon="6.53011">
        <ele>1756.789</ele>
        <time>2009-12-14T13:03:09Z</time>
      </trkpt>
      <trkpt lat="45.32463" lon="6.53019">
        <ele>1752.807</ele>
        <time>2009-12-14T13:03:16Z</time>
      </trkpt>
      <trkpt lat="45.32466" lon="6.5303">
        <ele>1748.955</ele>
        <time>2009-12-14T13:03:21Z</time>
      </trkpt>
      <trkpt lat="45.32475" lon="6.53025">
        <ele>1747.577</ele>
        <time>2009-12-14T13:03:25Z</time>
      </trkpt>
      <trkpt lat="45.32481" lon="6.53035">
        <ele>1743.514</ele>
        <time>2009-12-14T13:03:33Z</time>
      </trkpt>
      <trkpt lat="45.32489" lon="6.53027">
        <ele>1740.925</ele>
        <time>2009-12-14T13:03:40Z</time>
      </trkpt>
      <trkpt lat="45.32484" lon="6.53038">
        <ele>1738.401</ele>
        <time>2009-12-14T13:03:49Z</time>
      </trkpt>
      <trkpt lat="45.32483" lon="6.53052">
        <ele>1736.518</ele>
        <time>2009-12-14T13:03:55Z</time>
      </trkpt>
      <trkpt lat="45.32493" lon="6.53049">
        <ele>1733.529</ele>
        <time>2009-12-14T13:04:00Z</time>
      </trkpt>
      <trkpt lat="45.32494" lon="6.53064">
        <ele>1731.09</ele>
        <time>2009-12-14T13:04:05Z</time>
      </trkpt>
      <trkpt lat="45.32503" lon="6.53064">
        <ele>1731.666</ele>
        <time>2009-12-14T13:04:09Z</time>
      </trkpt>
      <trkpt lat="45.32511" lon="6.53072">
        <ele>1729.63</ele>
        <time>2009-12-14T13:04:13Z</time>
      </trkpt>
      <trkpt lat="45.32512" lon="6.53086">
        <ele>1726.085</ele>
        <time>2009-12-14T13:04:16Z</time>
      </trkpt>
      <trkpt lat="45.32524" lon="6.53082">
        <ele>1723.624</ele>
        <time>2009-12-14T13:04:19Z</time>
      </trkpt>
      <trkpt lat="45.32532" lon="6.53074">
        <ele>1722.092</ele>
        <time>2009-12-14T13:04:21Z</time>
      </trkpt>
      <trkpt lat="45.32542" lon="6.53067">
        <ele>1721.011</ele>
        <time>2009-12-14T13:04:23Z</time>
      </trkpt>
      <trkpt lat="45.32553" lon="6.53056">
        <ele>1718.968</ele>
        <time>2009-12-14T13:04:25Z</time>
      </trkpt>
      <trkpt lat="45.32563" lon="6.53049">
        <ele>1717.078</ele>
        <time>2009-12-14T13:04:27Z</time>
      </trkpt>
      <trkpt lat="45.32575" lon="6.53048">
        <ele>1716.354</ele>
        <time>2009-12-14T13:04:29Z</time>
      </trkpt>
      <trkpt lat="45.32586" lon="6.5305">
        <ele>1714.89</ele>
        <time>2009-12-14T13:04:31Z</time>
      </trkpt>
      <trkpt lat="45.32596" lon="6.5305">
        <ele>1714.288</ele>
        <time>2009-12-14T13:04:33Z</time>
      </trkpt>
      <trkpt lat="45.32604" lon="6.53045">
        <ele>1713.695</ele>
        <time>2009-12-14T13:04:36Z</time>
      </trkpt>
      <trkpt lat="45.32613" lon="6.5304">
        <ele>1713.175</ele>
        <time>2009-12-14T13:04:40Z</time>
      </trkpt>
      <trkpt lat="45.32624" lon="6.53036">
        <ele>1713.6</ele>
        <time>2009-12-14T13:04:45Z</time>
      </trkpt>
      <trkpt lat="45.32633" lon="6.53031">
        <ele>1714.559</ele>
        <time>2009-12-14T13:04:50Z</time>
      </trkpt>
      <trkpt lat="45.32643" lon="6.53029">
        <ele>1715.306</ele>
        <time>2009-12-14T13:04:55Z</time>
      </trkpt>
      <trkpt lat="45.32653" lon="6.53028">
        <ele>1714.787</ele>
        <time>2009-12-14T13:05:00Z</time>
      </trkpt>
      <trkpt lat="45.32663" lon="6.53027">
        <ele>1714.363</ele>
        <time>2009-12-14T13:05:06Z</time>
      </trkpt>
      <trkpt lat="45.3267" lon="6.5302">
        <ele>1715.337</ele>
        <time>2009-12-14T13:05:24Z</time>
      </trkpt>
      <trkpt lat="45.32678" lon="6.53013">
        <ele>1713.658</ele>
        <time>2009-12-14T13:05:41Z</time>
      </trkpt>
      <trkpt lat="45.32687" lon="6.53009">
        <ele>1715.608</ele>
        <time>2009-12-14T13:05:57Z</time>
      </trkpt>
      <trkpt lat="45.32694" lon="6.53003">
        <ele>1720.214</ele>
        <time>2009-12-14T13:06:10Z</time>
      </trkpt>
      <trkpt lat="45.32701" lon="6.52994">
        <ele>1719.327</ele>
        <time>2009-12-14T13:06:26Z</time>
      </trkpt>
      <trkpt lat="45.32709" lon="6.52986">
        <ele>1718.411</ele>
        <time>2009-12-14T13:06:29Z</time>
      </trkpt>
      <trkpt lat="45.32717" lon="6.52976">
        <ele>1717.111</ele>
        <time>2009-12-14T13:06:32Z</time>
      </trkpt>
      <trkpt lat="45.32725" lon="6.52968">
        <ele>1714.215</ele>
        <time>2009-12-14T13:06:34Z</time>
      </trkpt>
      <trkpt lat="45.32736" lon="6.52962">
        <ele>1712.368</ele>
        <time>2009-12-14T13:06:36Z</time>
      </trkpt>
      <trkpt lat="45.32747" lon="6.52961">
        <ele>1711.253</ele>
        <time>2009-12-14T13:06:38Z</time>
      </trkpt>
      <trkpt lat="45.32759" lon="6.52957">
        <ele>1709.613</ele>
        <time>2009-12-14T13:06:41Z</time>
      </trkpt>
      <trkpt lat="45.32767" lon="6.52953">
        <ele>1707.787</ele>
        <time>2009-12-14T13:06:43Z</time>
      </trkpt>
      <trkpt lat="45.32776" lon="6.52952">
        <ele>1706.797</ele>
        <time>2009-12-14T13:06:45Z</time>
      </trkpt>
      <trkpt lat="45.32788" lon="6.52952">
        <ele>1704.977</ele>
        <time>2009-12-14T13:06:47Z</time>
      </trkpt>
      <trkpt lat="45.32799" lon="6.52947">
        <ele>1702.356</ele>
        <time>2009-12-14T13:06:49Z</time>
      </trkpt>
      <trkpt lat="45.3281" lon="6.52943">
        <ele>1702.42</ele>
        <time>2009-12-14T13:06:51Z</time>
      </trkpt>
      <trkpt lat="45.32821" lon="6.52942">
        <ele>1702.37</ele>
        <time>2009-12-14T13:06:53Z</time>
      </trkpt>
      <trkpt lat="45.3283" lon="6.52942">
        <ele>1702.417</ele>
        <time>2009-12-14T13:06:55Z</time>
      </trkpt>
      <trkpt lat="45.32841" lon="6.52942">
        <ele>1703.571</ele>
        <time>2009-12-14T13:06:58Z</time>
      </trkpt>
      <trkpt lat="45.3285" lon="6.52941">
        <ele>1702.625</ele>
        <time>2009-12-14T13:07:01Z</time>
      </trkpt>
      <trkpt lat="45.32861" lon="6.52937">
        <ele>1701.446</ele>
        <time>2009-12-14T13:07:04Z</time>
      </trkpt>
      <trkpt lat="45.32873" lon="6.52934">
        <ele>1700.425</ele>
        <time>2009-12-14T13:07:07Z</time>
      </trkpt>
      <trkpt lat="45.32882" lon="6.52931">
        <ele>1699.979</ele>
        <time>2009-12-14T13:07:10Z</time>
      </trkpt>
      <trkpt lat="45.3289" lon="6.52927">
        <ele>1699.201</ele>
        <time>2009-12-14T13:07:14Z</time>
      </trkpt>
      <trkpt lat="45.32901" lon="6.52922">
        <ele>1697.268</ele>
        <time>2009-12-14T13:07:19Z</time>
      </trkpt>
      <trkpt lat="45.3291" lon="6.52915">
        <ele>1696.047</ele>
        <time>2009-12-14T13:07:25Z</time>
      </trkpt>
      <trkpt lat="45.32919" lon="6.5291">
        <ele>1696.524</ele>
        <time>2009-12-14T13:07:35Z</time>
      </trkpt>
      <trkpt lat="45.32931" lon="6.52905">
        <ele>1693.628</ele>
        <time>2009-12-14T13:07:39Z</time>
      </trkpt>
      <trkpt lat="45.3294" lon="6.52898">
        <ele>1692.021</ele>
        <time>2009-12-14T13:07:41Z</time>
      </trkpt>
      <trkpt lat="45.32948" lon="6.52892">
        <ele>1691.932</ele>
        <time>2009-12-14T13:07:43Z</time>
      </trkpt>
      <trkpt lat="45.3296" lon="6.52883">
        <ele>1691.415</ele>
        <time>2009-12-14T13:07:46Z</time>
      </trkpt>
      <trkpt lat="45.32971" lon="6.52877">
        <ele>1692.79</ele>
        <time>2009-12-14T13:07:49Z</time>
      </trkpt>
      <trkpt lat="45.3298" lon="6.52869">
        <ele>1691.836</ele>
        <time>2009-12-14T13:07:53Z</time>
      </trkpt>
      <trkpt lat="45.32988" lon="6.52862">
        <ele>1693.614</ele>
        <time>2009-12-14T13:07:58Z</time>
      </trkpt>
      <trkpt lat="45.32996" lon="6.5286">
        <ele>1696.666</ele>
        <time>2009-12-14T13:08:06Z</time>
      </trkpt>
      <trkpt lat="45.33005" lon="6.52859">
        <ele>1699.589</ele>
        <time>2009-12-14T13:08:20Z</time>
      </trkpt>
      <trkpt lat="45.33014" lon="6.52853">
        <ele>1698.704</ele>
        <time>2009-12-14T13:08:27Z</time>
      </trkpt>
      <trkpt lat="45.33022" lon="6.52845">
        <ele>1696.827</ele>
        <time>2009-12-14T13:08:31Z</time>
      </trkpt>
      <trkpt lat="45.33028" lon="6.52835">
        <ele>1694.058</ele>
        <time>2009-12-14T13:08:34Z</time>
      </trkpt>
      <trkpt lat="45.33035" lon="6.52826">
        <ele>1692.498</ele>
        <time>2009-12-14T13:08:37Z</time>
      </trkpt>
      <trkpt lat="45.33044" lon="6.52815">
        <ele>1689.397</ele>
        <time>2009-12-14T13:08:40Z</time>
      </trkpt>
      <trkpt lat="45.33051" lon="6.52807">
        <ele>1687.433</ele>
        <time>2009-12-14T13:08:42Z</time>
      </trkpt>
      <trkpt lat="45.33062" lon="6.52803">
        <ele>1686.636</ele>
        <time>2009-12-14T13:08:44Z</time>
      </trkpt>
      <trkpt lat="45.33074" lon="6.52803">
        <ele>1687.577</ele>
        <time>2009-12-14T13:08:46Z</time>
      </trkpt>
      <trkpt lat="45.33084" lon="6.52805">
        <ele>1687.276</ele>
        <time>2009-12-14T13:08:48Z</time>
      </trkpt>
      <trkpt lat="45.33096" lon="6.52804">
        <ele>1685.078</ele>
        <time>2009-12-14T13:08:51Z</time>
      </trkpt>
      <trkpt lat="45.33105" lon="6.52799">
        <ele>1684.746</ele>
        <time>2009-12-14T13:08:53Z</time>
      </trkpt>
      <trkpt lat="45.33114" lon="6.52793">
        <ele>1684.405</ele>
        <time>2009-12-14T13:08:55Z</time>
      </trkpt>
      <trkpt lat="45.33124" lon="6.52787">
        <ele>1683.819</ele>
        <time>2009-12-14T13:08:58Z</time>
      </trkpt>
      <trkpt lat="45.33132" lon="6.52785">
        <ele>1682.846</ele>
        <time>2009-12-14T13:09:01Z</time>
      </trkpt>
      <trkpt lat="45.33142" lon="6.52781">
        <ele>1682.186</ele>
        <time>2009-12-14T13:09:06Z</time>
      </trkpt>
      <trkpt lat="45.33152" lon="6.52779">
        <ele>1681.542</ele>
        <time>2009-12-14T13:09:12Z</time>
      </trkpt>
      <trkpt lat="45.33164" lon="6.52775">
        <ele>1679.459</ele>
        <time>2009-12-14T13:09:18Z</time>
      </trkpt>
      <trkpt lat="45.33173" lon="6.52776">
        <ele>1679.816</ele>
        <time>2009-12-14T13:09:21Z</time>
      </trkpt>
      <trkpt lat="45.33183" lon="6.52778">
        <ele>1679.764</ele>
        <time>2009-12-14T13:09:25Z</time>
      </trkpt>
      <trkpt lat="45.33193" lon="6.52779">
        <ele>1681.093</ele>
        <time>2009-12-14T13:09:29Z</time>
      </trkpt>
      <trkpt lat="45.33202" lon="6.5278">
        <ele>1681.568</ele>
        <time>2009-12-14T13:09:33Z</time>
      </trkpt>
      <trkpt lat="45.33212" lon="6.52785">
        <ele>1683.872</ele>
        <time>2009-12-14T13:09:38Z</time>
      </trkpt>
      <trkpt lat="45.33221" lon="6.52787">
        <ele>1682.468</ele>
        <time>2009-12-14T13:09:43Z</time>
      </trkpt>
      <trkpt lat="45.33231" lon="6.52787">
        <ele>1681.936</ele>
        <time>2009-12-14T13:09:46Z</time>
      </trkpt>
      <trkpt lat="45.33242" lon="6.52784">
        <ele>1680.167</ele>
        <time>2009-12-14T13:09:49Z</time>
      </trkpt>
      <trkpt lat="45.33253" lon="6.52779">
        <ele>1678.266</ele>
        <time>2009-12-14T13:09:53Z</time>
      </trkpt>
      <trkpt lat="45.33263" lon="6.52772">
        <ele>1675.355</ele>
        <time>2009-12-14T13:09:58Z</time>
      </trkpt>
      <trkpt lat="45.33273" lon="6.52768">
        <ele>1671.444</ele>
        <time>2009-12-14T13:10:00Z</time>
      </trkpt>
      <trkpt lat="45.33284" lon="6.52762">
        <ele>1668.731</ele>
        <time>2009-12-14T13:10:02Z</time>
      </trkpt>
      <trkpt lat="45.33295" lon="6.52755">
        <ele>1666.191</ele>
        <time>2009-12-14T13:10:04Z</time>
      </trkpt>
      <trkpt lat="45.33306" lon="6.52751">
        <ele>1664.804</ele>
        <time>2009-12-14T13:10:06Z</time>
      </trkpt>
      <trkpt lat="45.33316" lon="6.52747">
        <ele>1661.841</ele>
        <time>2009-12-14T13:10:09Z</time>
      </trkpt>
      <trkpt lat="45.33327" lon="6.52742">
        <ele>1658.055</ele>
        <time>2009-12-14T13:10:13Z</time>
      </trkpt>
      <trkpt lat="45.33336" lon="6.52732">
        <ele>1654.938</ele>
        <time>2009-12-14T13:10:21Z</time>
      </trkpt>
      <trkpt lat="45.33344" lon="6.52721">
        <ele>1652.429</ele>
        <time>2009-12-14T13:10:23Z</time>
      </trkpt>
      <trkpt lat="45.33353" lon="6.52707">
        <ele>1650.534</ele>
        <time>2009-12-14T13:10:25Z</time>
      </trkpt>
      <trkpt lat="45.33365" lon="6.52695">
        <ele>1650.15</ele>
        <time>2009-12-14T13:10:27Z</time>
      </trkpt>
      <trkpt lat="45.33377" lon="6.52684">
        <ele>1650.782</ele>
        <time>2009-12-14T13:10:29Z</time>
      </trkpt>
      <trkpt lat="45.33385" lon="6.52678">
        <ele>1651.935</ele>
        <time>2009-12-14T13:10:31Z</time>
      </trkpt>
      <trkpt lat="45.33393" lon="6.52672">
        <ele>1651.104</ele>
        <time>2009-12-14T13:10:34Z</time>
      </trkpt>
      <trkpt lat="45.33402" lon="6.52665">
        <ele>1651.455</ele>
        <time>2009-12-14T13:10:38Z</time>
      </trkpt>
      <trkpt lat="45.33413" lon="6.52658">
        <ele>1650.71</ele>
        <time>2009-12-14T13:10:42Z</time>
      </trkpt>
      <trkpt lat="45.33424" lon="6.52655">
        <ele>1649.901</ele>
        <time>2009-12-14T13:10:46Z</time>
      </trkpt>
      <trkpt lat="45.33435" lon="6.52654">
        <ele>1649.196</ele>
        <time>2009-12-14T13:10:50Z</time>
      </trkpt>
      <trkpt lat="45.33444" lon="6.52653">
        <ele>1648.562</ele>
        <time>2009-12-14T13:10:53Z</time>
      </trkpt>
      <trkpt lat="45.33454" lon="6.52652">
        <ele>1648.705</ele>
        <time>2009-12-14T13:10:56Z</time>
      </trkpt>
      <trkpt lat="45.33464" lon="6.52649">
        <ele>1648.59</ele>
        <time>2009-12-14T13:11:01Z</time>
      </trkpt>
      <trkpt lat="45.33474" lon="6.52648">
        <ele>1647.378</ele>
        <time>2009-12-14T13:11:06Z</time>
      </trkpt>
      <trkpt lat="45.33484" lon="6.52648">
        <ele>1647.504</ele>
        <time>2009-12-14T13:11:12Z</time>
      </trkpt>
      <trkpt lat="45.33494" lon="6.52651">
        <ele>1647.249</ele>
        <time>2009-12-14T13:11:17Z</time>
      </trkpt>
      <trkpt lat="45.33503" lon="6.52653">
        <ele>1647.731</ele>
        <time>2009-12-14T13:11:20Z</time>
      </trkpt>
      <trkpt lat="45.33512" lon="6.52655">
        <ele>1648.426</ele>
        <time>2009-12-14T13:11:24Z</time>
      </trkpt>
      <trkpt lat="45.33522" lon="6.5266">
        <ele>1649.08</ele>
        <time>2009-12-14T13:11:29Z</time>
      </trkpt>
      <trkpt lat="45.3353" lon="6.52665">
        <ele>1648.556</ele>
        <time>2009-12-14T13:11:34Z</time>
      </trkpt>
      <trkpt lat="45.3354" lon="6.52671">
        <ele>1649.056</ele>
        <time>2009-12-14T13:11:40Z</time>
      </trkpt>
      <trkpt lat="45.33549" lon="6.52676">
        <ele>1648.945</ele>
        <time>2009-12-14T13:11:45Z</time>
      </trkpt>
      <trkpt lat="45.33557" lon="6.5268">
        <ele>1647.01</ele>
        <time>2009-12-14T13:11:50Z</time>
      </trkpt>
      <trkpt lat="45.33566" lon="6.52683">
        <ele>1643.924</ele>
        <time>2009-12-14T13:11:55Z</time>
      </trkpt>
      <trkpt lat="45.33575" lon="6.52687">
        <ele>1642.514</ele>
        <time>2009-12-14T13:11:59Z</time>
      </trkpt>
      <trkpt lat="45.33585" lon="6.5269">
        <ele>1643.161</ele>
        <time>2009-12-14T13:12:04Z</time>
      </trkpt>
      <trkpt lat="45.33595" lon="6.52693">
        <ele>1644.955</ele>
        <time>2009-12-14T13:12:09Z</time>
      </trkpt>
      <trkpt lat="45.33604" lon="6.52694">
        <ele>1647.1</ele>
        <time>2009-12-14T13:12:14Z</time>
      </trkpt>
      <trkpt lat="45.33614" lon="6.52695">
        <ele>1647.125</ele>
        <time>2009-12-14T13:12:19Z</time>
      </trkpt>
      <trkpt lat="45.33624" lon="6.52695">
        <ele>1646.47</ele>
        <time>2009-12-14T13:12:23Z</time>
      </trkpt>
      <trkpt lat="45.33632" lon="6.527">
        <ele>1647.114</ele>
        <time>2009-12-14T13:12:32Z</time>
      </trkpt>
      <trkpt lat="45.33642" lon="6.52704">
        <ele>1647.112</ele>
        <time>2009-12-14T13:12:38Z</time>
      </trkpt>
      <trkpt lat="45.33652" lon="6.52707">
        <ele>1646.839</ele>
        <time>2009-12-14T13:12:46Z</time>
      </trkpt>
      <trkpt lat="45.33662" lon="6.52711">
        <ele>1647.055</ele>
        <time>2009-12-14T13:12:51Z</time>
      </trkpt>
      <trkpt lat="45.33671" lon="6.52713">
        <ele>1647.891</ele>
        <time>2009-12-14T13:12:55Z</time>
      </trkpt>
      <trkpt lat="45.33682" lon="6.52715">
        <ele>1648.282</ele>
        <time>2009-12-14T13:12:59Z</time>
      </trkpt>
      <trkpt lat="45.33691" lon="6.52714">
        <ele>1647.481</ele>
        <time>2009-12-14T13:13:02Z</time>
      </trkpt>
      <trkpt lat="45.33701" lon="6.52711">
        <ele>1646.377</ele>
        <time>2009-12-14T13:13:05Z</time>
      </trkpt>
      <trkpt lat="45.33713" lon="6.52708">
        <ele>1645.348</ele>
        <time>2009-12-14T13:13:09Z</time>
      </trkpt>
      <trkpt lat="45.33726" lon="6.5271">
        <ele>1646.362</ele>
        <time>2009-12-14T13:13:12Z</time>
      </trkpt>
      <trkpt lat="45.3374" lon="6.5271">
        <ele>1646.23</ele>
        <time>2009-12-14T13:13:15Z</time>
      </trkpt>
      <trkpt lat="45.3375" lon="6.5271">
        <ele>1645.646</ele>
        <time>2009-12-14T13:13:17Z</time>
      </trkpt>
      <trkpt lat="45.3376" lon="6.52708">
        <ele>1642.641</ele>
        <time>2009-12-14T13:13:19Z</time>
      </trkpt>
      <trkpt lat="45.3377" lon="6.52701">
        <ele>1636.197</ele>
        <time>2009-12-14T13:13:21Z</time>
      </trkpt>
      <trkpt lat="45.33782" lon="6.52694">
        <ele>1633.809</ele>
        <time>2009-12-14T13:13:23Z</time>
      </trkpt>
      <trkpt lat="45.33794" lon="6.5269">
        <ele>1631.527</ele>
        <time>2009-12-14T13:13:25Z</time>
      </trkpt>
      <trkpt lat="45.33806" lon="6.52687">
        <ele>1630.277</ele>
        <time>2009-12-14T13:13:27Z</time>
      </trkpt>
      <trkpt lat="45.33817" lon="6.52683">
        <ele>1631.094</ele>
        <time>2009-12-14T13:13:29Z</time>
      </trkpt>
      <trkpt lat="45.33827" lon="6.5268">
        <ele>1630.155</ele>
        <time>2009-12-14T13:13:31Z</time>
      </trkpt>
      <trkpt lat="45.33836" lon="6.52674">
        <ele>1628.187</ele>
        <time>2009-12-14T13:13:33Z</time>
      </trkpt>
      <trkpt lat="45.33846" lon="6.52669">
        <ele>1627.557</ele>
        <time>2009-12-14T13:13:35Z</time>
      </trkpt>
      <trkpt lat="45.33857" lon="6.52663">
        <ele>1626.078</ele>
        <time>2009-12-14T13:13:37Z</time>
      </trkpt>
      <trkpt lat="45.33867" lon="6.52658">
        <ele>1624.757</ele>
        <time>2009-12-14T13:13:39Z</time>
      </trkpt>
      <trkpt lat="45.33877" lon="6.52652">
        <ele>1624.876</ele>
        <time>2009-12-14T13:13:41Z</time>
      </trkpt>
      <trkpt lat="45.33886" lon="6.52648">
        <ele>1625.246</ele>
        <time>2009-12-14T13:13:43Z</time>
      </trkpt>
      <trkpt lat="45.33894" lon="6.52644">
        <ele>1625.598</ele>
        <time>2009-12-14T13:13:45Z</time>
      </trkpt>
      <trkpt lat="45.33906" lon="6.52638">
        <ele>1625.971</ele>
        <time>2009-12-14T13:13:48Z</time>
      </trkpt>
      <trkpt lat="45.33917" lon="6.52632">
        <ele>1626.787</ele>
        <time>2009-12-14T13:13:52Z</time>
      </trkpt>
      <trkpt lat="45.33924" lon="6.52625">
        <ele>1627.372</ele>
        <time>2009-12-14T13:13:56Z</time>
      </trkpt>
      <trkpt lat="45.33935" lon="6.52625">
        <ele>1630.314</ele>
        <time>2009-12-14T13:14:09Z</time>
      </trkpt>
      <trkpt lat="45.33947" lon="6.52622">
        <ele>1629.183</ele>
        <time>2009-12-14T13:14:12Z</time>
      </trkpt>
      <trkpt lat="45.33955" lon="6.52615">
        <ele>1628.432</ele>
        <time>2009-12-14T13:14:15Z</time>
      </trkpt>
      <trkpt lat="45.33962" lon="6.52607">
        <ele>1626.594</ele>
        <time>2009-12-14T13:14:54Z</time>
      </trkpt>
      <trkpt lat="45.33972" lon="6.52606">
        <ele>1626.642</ele>
        <time>2009-12-14T13:15:02Z</time>
      </trkpt>
      <trkpt lat="45.33976" lon="6.52596">
        <ele>1622.047</ele>
        <time>2009-12-14T13:15:44Z</time>
      </trkpt>
    </trkseg>
  </trk>
</gpx>